Zarling — WDD7883 — position and weather

sailwx.info

Track history (hours):
 
Tides and Currents Weather Stations Pressure Air Temp Water Temp Dewpoint Dewpoint Depression Visibility Wind Speed Wind Dir Waves Ship Positions

Zarling

Owner: Clean Rivers Co-op, Portland, OR. More information available from US FCC via Universal Licensing System.

Last reported at 2016-Feb-08 13:32 UTC. Time now 2016-Feb-08 14:24 UTC.
Position N 46°11' W 123°51'.

Length 12 m.

Type: Pollution control. MMSI: 3699126.

Date/timePositionNaut miles runAvg speedWind from/ knotsBaromVisibWave heightAir tempDewpointWater temp
2016-Feb-08 13:32N 46°11' W 123°51'392994.7
2016-Feb-08 13:32N 46°05' W 122°56'791.1
2016-Feb-08 13:27N 46°10' W 123°03'1438.7
2016-Feb-08 13:05N 46°12' W 123°23'2035.8
2016-Feb-08 12:32N 46°11' W 123°51'20366.5
2016-Feb-08 12:29N 46°12' W 123°23'202035.7
2016-Feb-08 12:29N 46°05' W 122°56'790.2
2016-Feb-08 12:24N 46°10' W 123°03'3338.9
2016-Feb-08 11:32N 46°11' W 123°51'206396.7
2016-Feb-08 11:32N 46°12' W 123°23'20183.7
2016-Feb-08 11:26N 46°05' W 122°56'740.1
2016-Feb-08 11:15N 46°10' W 123°03'3347.3
2016-Feb-08 10:32N 46°11' W 123°51'205026.0
2016-Feb-08 10:32N 46°12' W 123°23'14348.9
2016-Feb-08 10:30N 46°10' W 123°03'3334.8
2016-Feb-08 09:32N 46°11' W 123°51'33137.0
2016-Feb-08 09:18N 46°10' W 123°03'141395.6
2016-Feb-08 09:17N 46°12' W 123°23'202035.7
2016-Feb-08 09:17N 46°05' W 122°56'3953.1
2016-Feb-08 08:32N 46°11' W 123°51'205026.0
2016-Feb-08 08:32N 46°12' W 123°23'14346.5
2016-Feb-08 08:30N 46°10' W 123°03'742.4
2016-Feb-08 08:20N 46°05' W 122°56'3949.8
2016-Feb-08 07:32N 46°11' W 123°51'33769.3
2016-Feb-08 07:30N 46°10' W 123°03'1466.3
2016-Feb-08 07:17N 46°12' W 123°23'20177.4
2016-Feb-08 07:10N 46°05' W 122°56'3962.0
2016-Feb-08 06:32N 46°11' W 123°51'20127.0
2016-Feb-08 06:23N 46°12' W 123°23'20177.0
2016-Feb-08 06:16N 46°05' W 122°56'0 0.0
2016-Feb-08 05:33N 46°05' W 122°56'396119.6
2016-Feb-08 05:32N 46°11' W 123°51'2064.4
2016-Feb-08 05:14N 46°12' W 123°23'14100.1
2016-Feb-08 05:06N 46°10' W 123°03'3359.8
2016-Feb-08 04:32N 46°11' W 123°51'20188.6
2016-Feb-08 04:26N 46°12' W 123°23'1473.6
2016-Feb-08 04:15N 46°10' W 123°03'3347.2
2016-Feb-08 03:32N 46°11' W 123°51'33774.3
2016-Feb-08 03:30N 46°10' W 123°03'7141.6
2016-Feb-08 03:27N 46°05' W 122°56'202035.7
2016-Feb-08 03:26N 46°12' W 123°23'2021.8
2016-Feb-08 02:32N 46°11' W 123°51'39414.0
2016-Feb-08 02:27N 46°05' W 122°56'0 0.0
2016-Feb-08 01:33N 46°05' W 122°56'398279.5
2016-Feb-08 01:33N 46°11' W 123°51'33759.6
2016-Feb-08 01:30N 46°10' W 123°03'7 7.6
2016-Feb-08 00:33N 46°05' W 122°56'399383.5
2016-Feb-08 00:33N 46°11' W 123°51'2058.8
2016-Feb-08 00:13N 46°12' W 123°23'141225.4
2016-Feb-08 00:12N 46°10' W 123°03'3350.7
2016-Feb-07 23:32N 46°11' W 123°51'33779.3
2016-Feb-07 23:30N 46°10' W 123°03'1448.4
2016-Feb-07 23:13N 46°12' W 123°23'1421.1
2016-Feb-07 22:33N 46°10' W 123°03'336000.6
2016-Feb-07 22:33N 46°11' W 123°51'20606.6
2016-Feb-07 22:31N 46°12' W 123°23'201526.8
2016-Feb-07 22:30N 46°05' W 122°56'3941.0
2016-Feb-07 21:33N 46°11' W 123°51'33354.0
2016-Feb-07 21:27N 46°10' W 123°03'7142.5
2016-Feb-07 21:24N 46°05' W 122°56'0 0.0
2016-Feb-07 20:33N 46°05' W 122°56'398797.0
2016-Feb-07 20:33N 46°11' W 123°51'20236.1
2016-Feb-07 20:28N 46°12' W 123°23'1486.8
2016-Feb-07 20:18N 46°10' W 123°03'3344.1
2016-Feb-07 19:33N 46°11' W 123°51'20237.7
2016-Feb-07 19:28N 46°12' W 123°23'201559.3
2016-Feb-07 19:27N 46°05' W 122°56'0 0.0
2016-Feb-07 18:33N 46°05' W 122°56'398797.0
2016-Feb-07 18:33N 46°11' W 123°51'20106.8
2016-Feb-07 18:22N 46°12' W 123°23'14126.2
2016-Feb-07 18:15N 46°10' W 123°03'3347.2
2016-Feb-07 17:33N 46°11' W 123°51'39268.6
2016-Feb-07 17:24N 46°05' W 122°56'20233.4
2016-Feb-07 17:19N 46°12' W 123°23'1418.4
2016-Feb-07 16:33N 46°10' W 123°03'336000.6
2016-Feb-07 16:33N 46°11' W 123°51'20146.6
2016-Feb-07 16:25N 46°12' W 123°23'20321.4
2016-Feb-07 16:21N 46°05' W 122°56'0 0.0
2016-Feb-07 15:33N 46°05' W 122°56'3911729.3
2016-Feb-07 15:33N 46°11' W 123°51'33759.6
2016-Feb-07 15:30N 46°10' W 123°03'14155.6
2016-Feb-07 15:25N 46°12' W 123°23'1416.4
2016-Feb-07 14:34N 46°10' W 123°03'7635.5
2016-Feb-07 14:33N 46°05' W 122°56'398797.0
2016-Feb-07 14:33N 46°11' W 123°51'2069.3
2016-Feb-07 14:16N 46°12' W 123°23'1419.9
2016-Feb-07 13:34N 46°10' W 123°03'332182.0
2016-Feb-07 13:33N 46°11' W 123°51'20122.8
2016-Feb-07 13:23N 46°12' W 123°23'20563.7
2016-Feb-07 13:21N 46°05' W 122°56'3948.6
2016-Feb-07 12:33N 46°11' W 123°51'202198.9
2016-Feb-07 12:32N 46°12' W 123°23'20108.9
2016-Feb-07 12:21N 46°05' W 122°56'7184.8
2016-Feb-07 12:18N 46°10' W 123°03'3343.6
2016-Feb-07 11:33N 46°11' W 123°51'202010.4
2016-Feb-07 11:32N 46°12' W 123°23'14540.2
2016-Feb-07 11:31N 46°10' W 123°03'7117.4
2016-Feb-07 11:27N 46°05' W 122°56'0 0.0
2016-Feb-07 10:33N 46°05' W 122°56'3914075.2
2016-Feb-07 10:33N 46°11' W 123°51'201804.2
2016-Feb-07 10:32N 46°12' W 123°23'14185.4
2016-Feb-07 10:27N 46°10' W 123°03'7 7.9
2016-Feb-07 09:33N 46°05' W 122°56'202093.9
2016-Feb-07 09:32N 46°12' W 123°23'14425.8
2016-Feb-07 09:30N 46°10' W 123°03'0 0.0
2016-Feb-07 08:33N 46°10' W 123°03'7868.6
2016-Feb-07 08:33N 46°05' W 122°56'39804.3
2016-Feb-07 08:30N 46°11' W 123°51'20330.3
2016-Feb-07 08:26N 46°12' W 123°23'1415.8
2016-Feb-07 07:33N 46°10' W 123°03'336667.3
2016-Feb-07 07:33N 46°11' W 123°51'39255.4
2016-Feb-07 07:24N 46°05' W 122°56'3946.1
2016-Feb-07 06:33N 46°11' W 123°51'33769.3
2016-Feb-07 06:30N 46°10' W 123°03'7930.6
2016-Feb-07 06:30N 46°05' W 122°56'202364.1
2016-Feb-07 06:29N 46°12' W 123°23'2020.8
2016-Feb-07 05:33N 46°11' W 123°51'33759.6
2016-Feb-07 05:30N 46°10' W 123°03'7898.5
2016-Feb-07 05:30N 46°05' W 122°56'202220.8
2016-Feb-07 05:29N 46°12' W 123°23'1415.0
2016-Feb-07 04:33N 46°10' W 123°03'335714.8
2016-Feb-07 04:33N 46°11' W 123°51'3915639.1
2016-Feb-07 04:33N 46°05' W 122°56'20347.3
2016-Feb-07 04:29N 46°12' W 123°23'1415.0
2016-Feb-07 03:33N 46°10' W 123°03'335714.8
2016-Feb-07 03:33N 46°11' W 123°51'20317.0
2016-Feb-07 03:29N 46°12' W 123°23'20222.1
2016-Feb-07 03:24N 46°05' W 122°56'3946.1
2016-Feb-07 02:33N 46°11' W 123°51'3915639.1
2016-Feb-07 02:33N 46°05' W 122°56'7181.0
2016-Feb-07 02:30N 46°10' W 123°03'1443.9
2016-Feb-07 02:11N 46°12' W 123°23'2030.6
2016-Feb-07 01:33N 46°11' W 123°51'33774.3
2016-Feb-07 01:30N 46°10' W 123°03'7704.2
2016-Feb-07 01:30N 46°05' W 122°56'202714.3
2016-Feb-07 01:29N 46°12' W 123°23'2020.8
2016-Feb-07 00:33N 46°11' W 123°51'201675.3
2016-Feb-07 00:32N 46°12' W 123°23'14440.7
2016-Feb-07 00:30N 46°10' W 123°03'0 0.0
2016-Feb-06 23:33N 46°10' W 123°03'338000.7
2016-Feb-06 23:33N 46°11' W 123°51'397819.4
2016-Feb-06 23:33N 46°05' W 122°56'202364.1
2016-Feb-06 23:32N 46°12' W 123°23'2019.8
2016-Feb-06 22:33N 46°11' W 123°51'39736.9
2016-Feb-06 22:30N 46°05' W 122°56'3941.3
2016-Feb-06 21:33N 46°11' W 123°51'33759.6
2016-Feb-06 21:30N 46°10' W 123°03'14208.5
2016-Feb-06 21:26N 46°12' W 123°23'2069.6
2016-Feb-06 21:09N 46°05' W 122°56'3965.6
2016-Feb-06 20:33N 46°11' W 123°51'33355.1
2016-Feb-06 20:27N 46°10' W 123°03'7120.1
2016-Feb-06 20:24N 46°05' W 122°56'20347.4
2016-Feb-06 20:20N 46°12' W 123°23'1417.9
2016-Feb-06 19:33N 46°10' W 123°03'334615.8
2016-Feb-06 19:33N 46°11' W 123°51'201599.2
2016-Feb-06 19:32N 46°12' W 123°23'20495.2
2016-Feb-06 19:30N 46°05' W 122°56'3941.3
2016-Feb-06 18:33N 46°11' W 123°51'39192.0
2016-Feb-06 18:21N 46°05' W 122°56'780.7
2016-Feb-06 18:15N 46°10' W 123°03'3347.2
2016-Feb-06 17:33N 46°11' W 123°51'201465.9
2016-Feb-06 17:32N 46°12' W 123°23'14448.6
2016-Feb-06 17:30N 46°10' W 123°03'7723.8
2016-Feb-06 17:30N 46°05' W 122°56'3941.3
2016-Feb-06 16:33N 46°11' W 123°51'33754.8
2016-Feb-06 16:30N 46°10' W 123°03'14117.9
2016-Feb-06 16:23N 46°12' W 123°23'2069.8
2016-Feb-06 16:06N 46°05' W 122°56'713.4
2016-Feb-06 15:33N 46°10' W 123°03'334615.8
2016-Feb-06 15:33N 46°11' W 123°51'3911729.3
2016-Feb-06 15:33N 46°05' W 122°56'2078.6
2016-Feb-06 15:17N 46°12' W 123°23'2026.6
2016-Feb-06 14:33N 46°11' W 123°51'201353.1
2016-Feb-06 14:32N 46°12' W 123°23'1477.4
2016-Feb-06 14:21N 46°10' W 123°03'744.9
2016-Feb-06 14:12N 46°05' W 122°56'3956.2
2016-Feb-06 13:30N 46°11' W 123°51'20308.6
2016-Feb-06 13:26N 46°12' W 123°23'14173.3
2016-Feb-06 13:21N 46°10' W 123°03'7111.8
2016-Feb-06 13:17N 46°05' W 122°56'3952.8
2016-Feb-06 12:33N 46°11' W 123°51'33754.8
2016-Feb-06 12:30N 46°10' W 123°03'14707.7
2016-Feb-06 12:29N 46°12' W 123°23'20449.6
2016-Feb-06 12:26N 46°05' W 122°56'3943.9
2016-Feb-06 11:33N 46°11' W 123°51'20170.8
2016-Feb-06 11:26N 46°12' W 123°23'20446.9
2016-Feb-06 11:23N 46°05' W 122°56'753.8
2016-Feb-06 11:15N 46°10' W 123°03'3347.1
2016-Feb-06 10:33N 46°11' W 123°51'395026.9
2016-Feb-06 10:32N 46°05' W 122°56'7206.8
2016-Feb-06 10:30N 46°10' W 123°03'1463.7
2016-Feb-06 10:17N 46°12' W 123°23'2026.5
2016-Feb-06 09:33N 46°11' W 123°51'201379.7
2016-Feb-06 09:32N 46°12' W 123°23'14469.6
2016-Feb-06 09:30N 46°10' W 123°03'762.5
2016-Feb-06 09:23N 46°05' W 122°56'3946.6
2016-Feb-06 08:33N 46°11' W 123°51'201256.5
2016-Feb-06 08:32N 46°12' W 123°23'14176.9
2016-Feb-06 08:27N 46°10' W 123°03'7110.4
2016-Feb-06 08:23N 46°05' W 122°56'3946.6
2016-Feb-06 07:33N 46°11' W 123°51'201353.1
2016-Feb-06 07:32N 46°12' W 123°23'1477.5
2016-Feb-06 07:21N 46°10' W 123°03'743.5
2016-Feb-06 07:11N 46°05' W 122°56'711.4
2016-Feb-06 06:33N 46°10' W 123°03'335000.5
2016-Feb-06 06:33N 46°11' W 123°51'201379.7
2016-Feb-06 06:32N 46°12' W 123°23'2045.7
2016-Feb-06 06:05N 46°05' W 122°56'713.5
2016-Feb-06 05:33N 46°10' W 123°03'335455.1
2016-Feb-06 05:33N 46°11' W 123°51'39651.6
2016-Feb-06 05:29N 46°05' W 122°56'20372.0
2016-Feb-06 05:26N 46°12' W 123°23'2022.1
2016-Feb-06 04:33N 46°11' W 123°51'393804.1
2016-Feb-06 04:32N 46°05' W 122°56'7213.6
2016-Feb-06 04:30N 46°10' W 123°03'14669.9
2016-Feb-06 04:29N 46°12' W 123°23'2020.9
2016-Feb-06 03:33N 46°11' W 123°51'394398.5
2016-Feb-06 03:32N 46°05' W 122°56'20373.9
2016-Feb-06 03:29N 46°12' W 123°23'1449.9
2016-Feb-06 03:12N 46°10' W 123°03'0 0.0
2016-Feb-06 02:33N 46°10' W 123°03'336316.4
2016-Feb-06 02:33N 46°11' W 123°51'39636.9
2016-Feb-06 02:29N 46°05' W 122°56'204310.9
2016-Feb-06 02:29N 46°12' W 123°23'2020.9
2016-Feb-06 01:33N 46°11' W 123°51'393704.0
2016-Feb-06 01:32N 46°05' W 122°56'786.3
2016-Feb-06 01:27N 46°10' W 123°03'1481.6
2016-Feb-06 01:17N 46°12' W 123°23'2026.6
2016-Feb-06 00:33N 46°11' W 123°51'393351.2
2016-Feb-06 00:32N 46°05' W 122°56'204310.9
2016-Feb-06 00:32N 46°12' W 123°23'2019.8
2016-Feb-05 23:33N 46°11' W 123°51'39651.6
2016-Feb-05 23:29N 46°05' W 122°56'7217.1
2016-Feb-05 23:27N 46°10' W 123°03'0 0.0
2016-Feb-05 22:33N 46°10' W 123°03'336316.4
2016-Feb-05 22:33N 46°11' W 123°51'39348.4
2016-Feb-05 22:26N 46°05' W 122°56'7 8.2
2016-Feb-05 21:33N 46°10' W 123°03'335455.1
2016-Feb-05 21:33N 46°11' W 123°51'361858.5
2016-Feb-05 21:32N 46°08' W 123°00'3 3.3
2016-Feb-05 20:33N 46°10' W 123°03'335217.9
2016-Feb-05 20:33N 46°11' W 123°51'3817318.2
2016-Feb-05 20:33N 46°06' W 122°56'201539.8
2016-Feb-05 20:32N 46°12' W 123°23'1414.3
2016-Feb-05 19:33N 46°10' W 123°03'335217.9
2016-Feb-05 19:33N 46°11' W 123°51'20242.6
2016-Feb-05 19:28N 46°12' W 123°23'25186.6
2016-Feb-05 19:20N 46°01' W 122°51'4355.3
2016-Feb-05 18:33N 46°11' W 123°51'20633.9
2016-Feb-05 18:31N 46°12' W 123°23'141225.4
2016-Feb-05 18:30N 46°10' W 123°03'13524.8
2016-Feb-05 18:29N 46°01' W 122°51'1314.0
2016-Feb-05 17:33N 46°10' W 123°03'335000.5
2016-Feb-05 17:33N 46°11' W 123°51'20617.2
2016-Feb-05 17:31N 46°12' W 123°23'20396.1
2016-Feb-05 17:28N 46°05' W 122°56'3942.6
2016-Feb-05 16:33N 46°11' W 123°51'39168.0
2016-Feb-05 16:19N 46°05' W 122°56'7704.2
2016-Feb-05 16:18N 46°10' W 123°03'1474.2
2016-Feb-05 16:07N 46°12' W 123°23'2034.4
2016-Feb-05 15:33N 46°11' W 123°51'391182.8
2016-Feb-05 15:31N 46°05' W 122°56'727.8
2016-Feb-05 15:15N 46°10' W 123°03'3347.2
2016-Feb-05 14:33N 46°11' W 123°51'33354.0
2016-Feb-05 14:27N 46°10' W 123°03'14101.3
2016-Feb-05 14:19N 46°12' W 123°23'20134.5
2016-Feb-05 14:10N 46°05' W 122°56'3963.3
2016-Feb-05 13:33N 46°11' W 123°51'33764.4
2016-Feb-05 13:30N 46°10' W 123°03'7183.5
2016-Feb-05 13:28N 46°05' W 122°56'20102.1
2016-Feb-05 13:16N 46°12' W 123°23'1419.6
2016-Feb-05 12:33N 46°10' W 123°03'33591.2
2016-Feb-05 12:30N 46°11' W 123°51'20622.7
2016-Feb-05 12:28N 46°12' W 123°23'20391.9
2016-Feb-05 12:25N 46°05' W 122°56'3945.1
2016-Feb-05 11:33N 46°11' W 123°51'33356.1
2016-Feb-05 11:27N 46°10' W 123°03'7491.6
2016-Feb-05 11:27N 46°05' W 122°56'20275.5
2016-Feb-05 11:22N 46°12' W 123°23'2023.9
2016-Feb-05 10:33N 46°11' W 123°51'39676.7
2016-Feb-05 10:30N 46°05' W 122°56'7205.3
2016-Feb-05 10:27N 46°10' W 123°03'14358.9
2016-Feb-05 10:25N 46°12' W 123°23'2022.5
2016-Feb-05 09:33N 46°11' W 123°51'394398.5
2016-Feb-05 09:33N 46°05' W 122°56'20842.4
2016-Feb-05 09:31N 46°12' W 123°23'141225.4
2016-Feb-05 09:30N 46°10' W 123°03'0 0.0
2016-Feb-05 08:33N 46°10' W 123°03'335000.5
2016-Feb-05 08:33N 46°11' W 123°51'39361.8
2016-Feb-05 08:27N 46°05' W 122°56'20163.6
2016-Feb-05 08:19N 46°12' W 123°23'1418.4
2016-Feb-05 07:33N 46°10' W 123°03'335217.9
2016-Feb-05 07:33N 46°11' W 123°51'394540.4
2016-Feb-05 07:33N 46°05' W 122°56'20823.4
2016-Feb-05 07:31N 46°12' W 123°23'1414.5
2016-Feb-05 06:33N 46°10' W 123°03'335714.8
2016-Feb-05 06:33N 46°11' W 123°51'2051.1
2016-Feb-05 06:10N 46°12' W 123°23'1422.9
2016-Feb-05 05:34N 46°10' W 123°03'142392.5
2016-Feb-05 05:33N 46°12' W 123°23'2017590.9
2016-Feb-05 05:33N 46°11' W 123°51'393198.9
2016-Feb-05 05:32N 46°05' W 122°56'3939.6
2016-Feb-05 04:33N 46°11' W 123°51'20395.3
2016-Feb-05 04:30N 46°12' W 123°23'201495.6
2016-Feb-05 04:29N 46°05' W 122°56'7236.9
2016-Feb-05 04:28N 46°10' W 123°03'3336.8
2016-Feb-05 03:33N 46°11' W 123°51'20395.3
2016-Feb-05 03:30N 46°12' W 123°23'201465.7
2016-Feb-05 03:29N 46°05' W 122°56'7236.9
2016-Feb-05 03:28N 46°10' W 123°03'3336.8
2016-Feb-05 02:33N 46°11' W 123°51'39609.3
2016-Feb-05 02:29N 46°05' W 122°56'20236.4
2016-Feb-05 02:24N 46°12' W 123°23'1457.0
2016-Feb-05 02:10N 46°10' W 123°03'3355.0
2016-Feb-05 01:33N 46°11' W 123°51'398289.0
2016-Feb-05 01:33N 46°05' W 122°56'20459.1
2016-Feb-05 01:30N 46°12' W 123°23'1497.0
2016-Feb-05 01:22N 46°10' W 123°03'3341.4
2016-Feb-05 00:33N 46°11' W 123°51'20384.5
2016-Feb-05 00:30N 46°12' W 123°23'27713.9
2016-Feb-05 00:28N 45°59' W 122°50'142173.0
2016-Feb-05 00:28N 46°10' W 123°03'3336.8
2016-Feb-04 23:33N 46°11' W 123°51'3917593.6
2016-Feb-04 23:33N 46°05' W 122°56'7173.7
2016-Feb-04 23:31N 46°10' W 123°03'14251.2
2016-Feb-04 23:27N 46°12' W 123°23'2021.7
2016-Feb-04 22:33N 46°11' W 123°51'3920107.4
2016-Feb-04 22:33N 46°05' W 122°56'737.7
2016-Feb-04 22:22N 46°10' W 123°03'142283.8
2016-Feb-04 22:21N 46°12' W 123°23'2024.5
2016-Feb-04 21:33N 46°11' W 123°51'33745.4
2016-Feb-04 21:31N 46°10' W 123°03'7868.6
2016-Feb-04 21:30N 46°05' W 122°56'20102.9
2016-Feb-04 21:18N 46°12' W 123°23'2026.1
2016-Feb-04 20:33N 46°11' W 123°51'20390.9
2016-Feb-04 20:30N 46°12' W 123°23'14322.1
2016-Feb-04 20:28N 46°10' W 123°03'766.6
2016-Feb-04 20:21N 46°05' W 122°56'3949.1
2016-Feb-04 19:33N 46°11' W 123°51'20380.4
2016-Feb-04 19:30N 46°12' W 123°23'14322.1
2016-Feb-04 19:28N 46°10' W 123°03'766.6
2016-Feb-04 19:21N 46°05' W 122°56'3949.1
2016-Feb-04 18:33N 46°11' W 123°51'2070364.9
2016-Feb-04 18:33N 46°12' W 123°23'1471.9
2016-Feb-04 18:22N 46°10' W 123°03'7868.6
2016-Feb-04 18:21N 46°05' W 122°56'3949.0
2016-Feb-04 17:33N 46°11' W 123°51'3911729.3
2016-Feb-04 17:33N 46°05' W 122°56'7178.5
2016-Feb-04 17:31N 46°10' W 123°03'14241.6
2016-Feb-04 17:27N 46°12' W 123°23'2021.8
2016-Feb-04 16:33N 46°11' W 123°51'39254.5
2016-Feb-04 16:24N 46°05' W 122°56'7178.5
2016-Feb-04 16:22N 46°10' W 123°03'1467.4
2016-Feb-04 16:09N 46°12' W 123°23'2032.6
2016-Feb-04 15:33N 46°11' W 123°51'2014072.8
2016-Feb-04 15:33N 46°12' W 123°23'2014657.1
2016-Feb-04 15:33N 46°05' W 122°56'7177.3
2016-Feb-04 15:31N 46°10' W 123°03'3334.9
2016-Feb-04 14:33N 46°11' W 123°51'2014072.8
2016-Feb-04 14:33N 46°12' W 123°23'14335.0
2016-Feb-04 14:31N 46°10' W 123°03'765.6
2016-Feb-04 14:24N 46°05' W 122°56'3946.2
2016-Feb-04 13:33N 46°11' W 123°51'2014073.0
2016-Feb-04 13:33N 46°12' W 123°23'20400.5
2016-Feb-04 13:30N 46°05' W 122°56'7177.3
2016-Feb-04 13:28N 46°10' W 123°03'3336.8
2016-Feb-04 12:33N 46°11' W 123°51'207818.2
2016-Feb-04 12:33N 46°12' W 123°23'2014657.1
2016-Feb-04 12:33N 46°05' W 122°56'7181.0
2016-Feb-04 12:31N 46°10' W 123°03'3334.9
2016-Feb-04 11:33N 46°11' W 123°51'33740.8
2016-Feb-04 11:31N 46°10' W 123°03'141794.4
2016-Feb-04 11:30N 46°12' W 123°23'20387.8
2016-Feb-04 11:27N 46°05' W 122°56'3943.6
2016-Feb-04 10:33N 46°11' W 123°51'20380.3
2016-Feb-04 10:30N 46°12' W 123°23'14154.1
2016-Feb-04 10:25N 46°10' W 123°03'7117.9
2016-Feb-04 10:21N 46°05' W 122°56'3949.2
2016-Feb-04 09:33N 46°11' W 123°51'398279.5
2016-Feb-04 09:33N 46°05' W 122°56'7182.2
2016-Feb-04 09:31N 46°10' W 123°03'14238.1
2016-Feb-04 09:27N 46°12' W 123°23'2021.8
2016-Feb-04 08:33N 46°11' W 123°51'2011727.5
2016-Feb-04 08:33N 46°12' W 123°23'20391.9
2016-Feb-04 08:30N 46°05' W 122°56'7182.2
2016-Feb-04 08:28N 46°10' W 123°03'3336.8
2016-Feb-04 07:33N 46°11' W 123°51'3911729.3
2016-Feb-04 07:33N 46°05' W 122°56'7182.2
2016-Feb-04 07:31N 46°10' W 123°03'1434.2
2016-Feb-04 07:06N 46°12' W 123°23'2035.7
2016-Feb-04 06:33N 46°11' W 123°51'207818.2
2016-Feb-04 06:33N 46°12' W 123°23'14335.0
2016-Feb-04 06:31N 46°10' W 123°03'7704.2
2016-Feb-04 06:30N 46°05' W 122°56'3941.4
2016-Feb-04 05:33N 46°11' W 123°51'20364.6
2016-Feb-04 05:30N 46°12' W 123°23'20389.8
2016-Feb-04 05:27N 46°05' W 122°56'7188.8
2016-Feb-04 05:25N 46°10' W 123°03'3338.9
2016-Feb-04 04:33N 46°11' W 123°51'3910827.1
2016-Feb-04 04:33N 46°05' W 122°56'20207.0
2016-Feb-04 04:27N 46°12' W 123°23'14348.9
2016-Feb-04 04:25N 46°10' W 123°03'3338.9
2016-Feb-04 03:33N 46°11' W 123°51'20382.4
2016-Feb-04 03:30N 46°12' W 123°23'20381.7
2016-Feb-04 03:27N 46°05' W 122°56'781.4
2016-Feb-04 03:22N 46°10' W 123°03'3341.3
2016-Feb-04 02:33N 46°11' W 123°51'398797.0
2016-Feb-04 02:33N 46°05' W 122°56'7181.0
2016-Feb-04 02:31N 46°10' W 123°03'142009.7
2016-Feb-04 02:30N 46°12' W 123°23'2020.6
2016-Feb-04 01:33N 46°11' W 123°51'33353.0
2016-Feb-04 01:28N 46°10' W 123°03'14233.7
2016-Feb-04 01:24N 46°12' W 123°23'20100.9
2016-Feb-04 01:12N 46°05' W 122°56'3960.6
2016-Feb-04 00:33N 46°11' W 123°51'398797.0
2016-Feb-04 00:33N 46°05' W 122°56'7191.6
2016-Feb-04 00:31N 46°10' W 123°03'141357.9
2016-Feb-04 00:30N 46°12' W 123°23'2020.7
2016-Feb-03 23:33N 46°11' W 123°51'396397.7
2016-Feb-03 23:33N 46°05' W 122°56'7193.0
2016-Feb-03 23:31N 46°10' W 123°03'1466.2
2016-Feb-03 23:18N 46°12' W 123°23'2026.2
2016-Feb-03 22:33N 46°11' W 123°51'33113.4
2016-Feb-03 22:16N 46°10' W 123°03'7620.4
2016-Feb-03 22:15N 46°05' W 122°56'20418.8
2016-Feb-03 22:12N 46°12' W 123°23'2030.3
2016-Feb-03 21:33N 46°11' W 123°51'396702.5
2016-Feb-03 21:33N 46°05' W 122°56'206107.1
2016-Feb-03 21:33N 46°12' W 123°23'14395.6
2016-Feb-03 21:31N 46°10' W 123°03'3334.9
2016-Feb-03 20:33N 46°11' W 123°51'202814.6
2016-Feb-03 20:33N 46°12' W 123°23'14102.5
2016-Feb-03 20:25N 46°10' W 123°03'744.5
2016-Feb-03 20:15N 46°05' W 122°56'3956.3
2016-Feb-03 19:33N 46°11' W 123°51'33774.3
2016-Feb-03 19:31N 46°10' W 123°03'7566.5
2016-Feb-03 19:30N 46°05' W 122°56'2010469.4
2016-Feb-03 19:30N 46°12' W 123°23'2020.7
2016-Feb-03 18:33N 46°11' W 123°51'20335.1
2016-Feb-03 18:30N 46°12' W 123°23'20428.6
2016-Feb-03 18:27N 46°05' W 122°56'718.7
2016-Feb-03 18:04N 46°10' W 123°03'3365.8
2016-Feb-03 17:33N 46°11' W 123°51'396397.8
2016-Feb-03 17:33N 46°05' W 122°56'7195.9
2016-Feb-03 17:31N 46°10' W 123°03'3334.8
2016-Feb-03 16:33N 46°11' W 123°51'202269.8
2016-Feb-03 16:33N 46°12' W 123°23'14166.4
2016-Feb-03 16:28N 46°10' W 123°03'3336.7
2016-Feb-03 15:33N 46°11' W 123°51'33120011.7
2016-Feb-03 15:33N 46°10' W 123°03'768.6
2016-Feb-03 15:27N 46°05' W 122°56'20100.5
2016-Feb-03 15:15N 46°12' W 123°23'2028.3
2016-Feb-03 14:33N 46°11' W 123°51'395413.5
2016-Feb-03 14:33N 46°05' W 122°56'20391.9
2016-Feb-03 14:30N 46°12' W 123°23'1497.7
2016-Feb-03 14:21N 46°10' W 123°03'3341.7
2016-Feb-03 13:33N 46°11' W 123°51'396119.6
2016-Feb-03 13:33N 46°05' W 122°56'7159.9
2016-Feb-03 13:30N 46°10' W 123°03'14188.9
2016-Feb-03 13:26N 46°12' W 123°23'2022.4
2016-Feb-03 12:34N 46°11' W 123°51'395213.0
2016-Feb-03 12:33N 46°05' W 122°56'20293.1
2016-Feb-03 12:29N 46°12' W 123°23'14184.7
2016-Feb-03 12:24N 46°10' W 123°03'3339.3
2016-Feb-03 11:33N 46°11' W 123°51'395864.7
2016-Feb-03 11:33N 46°05' W 122°56'201077.7
2016-Feb-03 11:32N 46°12' W 123°23'14546.1
2016-Feb-03 11:30N 46°10' W 123°03'3335.1
2016-Feb-03 10:33N 46°11' W 123°51'3324002.3
2016-Feb-03 10:33N 46°10' W 123°03'14570.9
2016-Feb-03 10:32N 46°12' W 123°23'20654.3
2016-Feb-03 10:30N 46°05' W 122°56'3941.5
2016-Feb-03 09:33N 46°11' W 123°51'20256.8
2016-Feb-03 09:29N 46°12' W 123°23'14185.4
2016-Feb-03 09:24N 46°10' W 123°03'7130.9
2016-Feb-03 09:21N 46°05' W 122°56'3949.4
2016-Feb-03 08:34N 46°11' W 123°51'3313334.6
2016-Feb-03 08:33N 46°10' W 123°03'71302.9
2016-Feb-03 08:33N 46°05' W 122°56'20213.7
2016-Feb-03 08:27N 46°12' W 123°23'2021.8
2016-Feb-03 07:34N 46°11' W 123°51'20189.7
2016-Feb-03 07:27N 46°12' W 123°23'204580.4
2016-Feb-03 07:27N 46°05' W 122°56'3943.8
2016-Feb-03 06:33N 46°11' W 123°51'3324002.3
2016-Feb-03 06:33N 46°10' W 123°03'14217.5
2016-Feb-03 06:30N 46°12' W 123°23'20106.8
2016-Feb-03 06:18N 46°05' W 122°56'3952.6
2016-Feb-03 05:34N 46°11' W 123°51'3320002.0
2016-Feb-03 05:33N 46°10' W 123°03'71184.4
2016-Feb-03 05:33N 46°05' W 122°56'20128.8
2016-Feb-03 05:24N 46°12' W 123°23'2023.4
2016-Feb-03 04:34N 46°11' W 123°51'395213.0
2016-Feb-03 04:33N 46°05' W 122°56'7166.0
2016-Feb-03 04:30N 46°10' W 123°03'14122.8
2016-Feb-03 04:24N 46°12' W 123°23'2023.4
2016-Feb-03 03:34N 46°11' W 123°51'3324002.3
2016-Feb-03 03:33N 46°10' W 123°03'71240.8
2016-Feb-03 03:33N 46°05' W 122°56'20350.6
2016-Feb-03 03:30N 46°12' W 123°23'2020.9
2016-Feb-03 02:34N 46°11' W 123°51'33359.3
2016-Feb-03 02:28N 46°10' W 123°03'7482.5
2016-Feb-03 02:27N 46°05' W 122°56'20355.8
2016-Feb-03 02:24N 46°12' W 123°23'2022.1
2016-Feb-03 01:31N 46°11' W 123°51'39680.0
2016-Feb-03 01:27N 46°05' W 122°56'784.6
2016-Feb-03 01:22N 46°10' W 123°03'3338.9
2016-Feb-03 00:31N 46°11' W 123°51'394691.7
2016-Feb-03 00:30N 46°05' W 122°56'202290.4
2016-Feb-03 00:30N 46°12' W 123°23'14546.1
2016-Feb-03 00:28N 46°10' W 123°03'0 0.0
2016-Feb-02 23:31N 46°10' W 123°03'334800.4
2016-Feb-02 23:31N 46°11' W 123°51'201256.5
2016-Feb-02 23:30N 46°12' W 123°23'20142.6
2016-Feb-02 23:21N 46°05' W 122°56'7 8.7
2016-Feb-02 22:31N 46°10' W 123°03'334800.5
2016-Feb-02 22:31N 46°11' W 123°51'39188.2
2016-Feb-02 22:18N 46°05' W 122°56'0 0.0
2016-Feb-02 21:33N 46°05' W 122°56'7213.6
2016-Feb-02 21:31N 46°10' W 123°03'334286.1
2016-Feb-02 21:31N 46°11' W 123°51'3333.6
2016-Feb-02 20:31N 46°10' W 123°03'334800.5
2016-Feb-02 20:31N 46°11' W 123°51'394398.5
2016-Feb-02 20:30N 46°05' W 122°56'20349.0
2016-Feb-02 20:27N 46°12' W 123°23'2022.8
2016-Feb-02 19:33N 46°05' W 122°56'202527.1
2016-Feb-02 19:33N 46°12' W 123°23'20601.4
2016-Feb-02 19:31N 46°11' W 123°51'33759.6
2016-Feb-02 19:28N 46°10' W 123°03'0 0.0
2016-Feb-02 18:34N 46°10' W 123°03'33689.7
2016-Feb-02 18:31N 46°11' W 123°51'394265.1
2016-Feb-02 18:30N 46°05' W 122°56'20188.9
2016-Feb-02 18:24N 46°12' W 123°23'2022.1
2016-Feb-02 17:31N 46°11' W 123°51'394139.8
2016-Feb-02 17:30N 46°05' W 122°56'202818.7
2016-Feb-02 17:30N 46°12' W 123°23'14392.5
2016-Feb-02 17:27N 46°10' W 123°03'0 0.0
2016-Feb-02 16:34N 46°10' W 123°03'33689.7
2016-Feb-02 16:31N 46°11' W 123°51'394265.2
2016-Feb-02 16:30N 46°05' W 122°56'202527.1
2016-Feb-02 16:30N 46°12' W 123°23'2021.6
2016-Feb-02 15:33N 46°05' W 122°56'202442.9
2016-Feb-02 15:33N 46°12' W 123°23'20617.2
2016-Feb-02 15:31N 46°11' W 123°51'3317144.5
2016-Feb-02 15:31N 46°10' W 123°03'0 0.0
2016-Feb-02 14:34N 46°10' W 123°03'14866.3
2016-Feb-02 14:33N 46°12' W 123°23'20606.6
2016-Feb-02 14:31N 46°11' W 123°51'39358.1
2016-Feb-02 14:24N 46°05' W 122°56'0 0.0
2016-Feb-02 13:33N 46°05' W 122°56'202818.7
2016-Feb-02 13:33N 46°12' W 123°23'20606.6
2016-Feb-02 13:31N 46°11' W 123°51'33219.0
2016-Feb-02 13:22N 46°10' W 123°03'3339.3
2016-Feb-02 12:31N 46°11' W 123°51'20284.9
2016-Feb-02 12:27N 46°12' W 123°23'20485.3
2016-Feb-02 12:24N 46°05' W 122°56'751.2
2016-Feb-02 12:16N 46°10' W 123°03'710.2
2016-Feb-02 11:33N 46°05' W 122°56'202617.3
2016-Feb-02 11:33N 46°12' W 123°23'20633.9
2016-Feb-02 11:31N 46°11' W 123°51'3324002.3
2016-Feb-02 11:31N 46°10' W 123°03'1414.4
2016-Feb-02 10:33N 46°12' W 123°23'20617.2
2016-Feb-02 10:31N 46°11' W 123°51'393704.0
2016-Feb-02 10:30N 46°05' W 122°56'779.2
2016-Feb-02 10:25N 46°10' W 123°03'7 8.4
2016-Feb-02 09:33N 46°05' W 122°56'391005.4
2016-Feb-02 09:31N 46°11' W 123°51'3320002.0
2016-Feb-02 09:31N 46°10' W 123°03'14797.5
2016-Feb-02 09:30N 46°12' W 123°23'0 0.0
2016-Feb-02 08:33N 46°12' W 123°23'20611.9
2016-Feb-02 08:31N 46°11' W 123°51'3330002.8
2016-Feb-02 08:31N 46°10' W 123°03'7121.2
2016-Feb-02 08:27N 46°05' W 122°56'2022.5
2016-Feb-02 07:33N 46°12' W 123°23'20586.4
2016-Feb-02 07:31N 46°11' W 123°51'39636.9
2016-Feb-02 07:27N 46°05' W 122°56'780.9
2016-Feb-02 07:22N 46°10' W 123°03'3339.3
2016-Feb-02 06:31N 46°11' W 123°51'3324002.2
2016-Feb-02 06:31N 46°10' W 123°03'7744.9
2016-Feb-02 06:30N 46°05' W 122°56'20187.9
2016-Feb-02 06:24N 46°12' W 123°23'2022.2
2016-Feb-02 05:31N 46°11' W 123°51'3317144.5
2016-Feb-02 05:31N 46°10' W 123°03'14797.5
2016-Feb-02 05:30N 46°12' W 123°23'20143.7
2016-Feb-02 05:21N 46°05' W 122°56'2024.8
2016-Feb-02 04:32N 46°12' W 123°23'201082.5
2016-Feb-02 04:31N 46°11' W 123°51'393351.2
2016-Feb-02 04:30N 46°05' W 122°56'718.5
2016-Feb-02 04:07N 46°10' W 123°03'3355.7
2016-Feb-02 03:31N 46°11' W 123°51'3324002.3
2016-Feb-02 03:31N 46°10' W 123°03'14106.7
2016-Feb-02 03:23N 46°12' W 123°23'20157.3
2016-Feb-02 03:15N 46°05' W 122°56'3953.1
2016-Feb-02 02:31N 46°11' W 123°51'39617.3
2016-Feb-02 02:27N 46°05' W 122°56'20287.4
2016-Feb-02 02:23N 46°12' W 123°23'0 0.0
2016-Feb-02 01:33N 46°12' W 123°23'20581.5
2016-Feb-02 01:31N 46°11' W 123°51'3324002.3
2016-Feb-02 01:31N 46°10' W 123°03'7120.6
2016-Feb-02 01:27N 46°05' W 122°56'3941.7
2016-Feb-02 00:31N 46°11' W 123°51'393059.8
2016-Feb-02 00:30N 46°05' W 122°56'751.6
2016-Feb-02 00:22N 46°10' W 123°03'3339.3
2016-Feb-01 23:31N 46°11' W 123°51'3320001.9
2016-Feb-01 23:31N 46°10' W 123°03'766.1
2016-Feb-01 23:24N 46°05' W 122°56'3944.0
2016-Feb-01 22:31N 46°11' W 123°51'33641.8
2016-Feb-01 22:28N 46°10' W 123°03'14452.6
2016-Feb-01 22:26N 46°12' W 123°23'20684.9
2016-Feb-01 22:24N 46°05' W 122°56'3944.1
2016-Feb-01 21:31N 46°11' W 123°51'392994.7
2016-Feb-01 21:30N 46°05' W 122°56'201017.9
2016-Feb-01 21:29N 46°12' W 123°23'14797.5
2016-Feb-01 21:28N 46°10' W 123°03'1415.0
2016-Feb-01 20:32N 46°12' W 123°23'20294.4
2016-Feb-01 20:28N 46°11' W 123°51'33628.3
2016-Feb-01 20:25N 46°10' W 123°03'7685.7
2016-Feb-01 20:24N 46°05' W 122°56'3944.1
2016-Feb-01 19:31N 46°11' W 123°51'3317144.5
2016-Feb-01 19:31N 46°10' W 123°03'7119.0
2016-Feb-01 19:27N 46°05' W 122°56'3941.8
2016-Feb-01 18:31N 46°11' W 123°51'39342.5
2016-Feb-01 18:24N 46°05' W 122°56'725.1
2016-Feb-01 18:07N 46°10' W 123°03'3355.7
2016-Feb-01 17:31N 46°11' W 123°51'33165.3
2016-Feb-01 17:19N 46°10' W 123°03'744.8
2016-Feb-01 17:09N 46°05' W 122°56'3961.5
2016-Feb-01 16:31N 46°11' W 123°51'3310910.2
2016-Feb-01 16:31N 46°10' W 123°03'7635.5
2016-Feb-01 16:30N 46°05' W 122°56'0 0.0
2016-Feb-01 15:33N 46°05' W 122°56'391066.3
2016-Feb-01 15:31N 46°11' W 123°51'3315001.4
2016-Feb-01 15:31N 46°10' W 123°03'3333.4
2016-Feb-01 14:31N 46°11' W 123°51'33638.4
2016-Feb-01 14:28N 46°10' W 123°03'7117.4
2016-Feb-01 14:24N 46°05' W 122°56'3944.1
2016-Feb-01 13:31N 46°11' W 123°51'33327.9
2016-Feb-01 13:25N 46°10' W 123°03'7592.2
2016-Feb-01 13:24N 46°05' W 122°56'3944.2
2016-Feb-01 12:31N 46°11' W 123°51'33219.8
2016-Feb-01 12:22N 46°10' W 123°03'7115.8
2016-Feb-01 12:18N 46°05' W 122°56'3949.8
2016-Feb-01 11:31N 46°11' W 123°51'3317144.5
2016-Feb-01 11:31N 46°10' W 123°03'7635.5
2016-Feb-01 11:30N 46°05' W 122°56'0 0.0
2016-Feb-01 10:33N 46°05' W 122°56'39457.0
2016-Feb-01 10:28N 46°11' W 123°51'3315001.5
2016-Feb-01 10:28N 46°10' W 123°03'7 7.9
2016-Feb-01 09:33N 46°05' W 122°56'391074.4
2016-Feb-01 09:31N 46°11' W 123°51'33638.4
2016-Feb-01 09:28N 46°10' W 123°03'3335.2
2016-Feb-01 08:31N 46°11' W 123°51'0 0.0
2016-Feb-01 07:31N 46°11' W 123°51'392815.0
2016-Feb-01 07:30N 46°05' W 122°56'752.6
2016-Feb-01 07:22N 46°10' W 123°03'3339.3
2016-Feb-01 06:31N 46°11' W 123°51'3315001.5
2016-Feb-01 06:31N 46°10' W 123°03'7115.3
2016-Feb-01 06:27N 46°05' W 122°56'3941.8
2016-Feb-01 05:31N 46°11' W 123°51'39340.0
2016-Feb-01 05:24N 46°05' W 122°56'7197.4
2016-Feb-01 05:22N 46°10' W 123°03'3339.3
2016-Feb-01 04:31N 46°11' W 123°51'392606.5
2016-Feb-01 04:30N 46°05' W 122°56'7195.9
2016-Feb-01 04:28N 46°10' W 123°03'7 7.9
2016-Feb-01 03:33N 46°05' W 122°56'391117.1
2016-Feb-01 03:31N 46°11' W 123°51'3940.5
2016-Feb-01 02:33N 46°05' W 122°56'391192.8
2016-Feb-01 02:31N 46°11' W 123°51'3310001.0
2016-Feb-01 02:31N 46°10' W 123°03'7 7.5
2016-Feb-01 01:33N 46°05' W 122°56'391135.1
2016-Feb-01 01:31N 46°11' W 123°51'3324002.3
2016-Feb-01 01:31N 46°10' W 123°03'3333.4
2016-Feb-01 00:31N 46°11' W 123°51'33652.2
2016-Feb-01 00:28N 46°10' W 123°03'7491.6
2016-Feb-01 00:27N 46°05' W 122°56'3941.8
2016-Jan-31 23:31N 46°11' W 123°51'33221.8
2016-Jan-31 23:22N 46°10' W 123°03'7111.8
2016-Jan-31 23:18N 46°05' W 122°56'0 0.0
2016-Jan-31 22:33N 46°05' W 122°56'391144.3
2016-Jan-31 22:31N 46°11' W 123°51'33641.8
2016-Jan-31 22:28N 46°10' W 123°03'7 7.9
2016-Jan-31 21:33N 46°05' W 122°56'391163.2
2016-Jan-31 21:31N 46°11' W 123°51'3324002.3
2016-Jan-31 21:31N 46°10' W 123°03'3333.4
2016-Jan-31 20:31N 46°11' W 123°51'39335.1
2016-Jan-31 20:24N 46°05' W 122°56'7268.6
2016-Jan-31 20:22N 46°10' W 123°03'3339.0
2016-Jan-31 19:31N 46°11' W 123°51'392307.4
2016-Jan-31 19:30N 46°05' W 122°56'7260.6
2016-Jan-31 19:28N 46°10' W 123°03'7 7.8
2016-Jan-31 18:33N 46°05' W 122°56'391163.2
2016-Jan-31 18:31N 46°11' W 123°51'33232.1
2016-Jan-31 18:22N 46°10' W 123°03'7 8.8
2016-Jan-31 17:33N 46°05' W 122°56'7274.3
2016-Jan-31 17:31N 46°10' W 123°03'335000.5
2016-Jan-31 17:31N 46°11' W 123°51'3940.4
2016-Jan-31 16:33N 46°05' W 122°56'391182.8
2016-Jan-31 16:31N 46°11' W 123°51'33356.1
2016-Jan-31 16:25N 46°10' W 123°03'7 8.3
2016-Jan-31 15:33N 46°05' W 122°56'7274.3
2016-Jan-31 15:31N 46°10' W 123°03'335455.1
2016-Jan-31 15:31N 46°11' W 123°51'0 0.0
2016-Jan-31 14:31N 46°11' W 123°51'33231.2
2016-Jan-31 14:22N 46°10' W 123°03'741.8
2016-Jan-31 14:12N 46°05' W 122°56'0 0.0
2016-Jan-31 13:33N 46°05' W 122°56'391192.8
2016-Jan-31 13:31N 46°11' W 123°51'33774.3
2016-Jan-31 13:28N 46°10' W 123°03'3334.8
2016-Jan-31 12:31N 46°11' W 123°51'392307.4
2016-Jan-31 12:30N 46°05' W 122°56'795.8
2016-Jan-31 12:26N 46°10' W 123°03'0 0.0
2016-Jan-31 11:32N 46°10' W 123°03'335000.5
2016-Jan-31 11:31N 46°11' W 123°51'392199.2
2016-Jan-31 11:30N 46°05' W 122°56'7 7.4
2016-Jan-31 10:32N 46°10' W 123°03'335217.9
2016-Jan-31 10:31N 46°11' W 123°51'39333.5
2016-Jan-31 10:24N 46°05' W 122°56'3944.3
2016-Jan-31 09:31N 46°11' W 123°51'392234.2
2016-Jan-31 09:30N 46°05' W 122°56'796.5
2016-Jan-31 09:26N 46°10' W 123°03'3336.7
2016-Jan-31 08:31N 46°11' W 123°51'392165.4
2016-Jan-31 08:30N 46°05' W 122°56'7289.5
2016-Jan-31 08:29N 46°10' W 123°03'7 7.8
2016-Jan-31 07:33N 46°05' W 122°56'7286.3
2016-Jan-31 07:32N 46°10' W 123°03'335000.5
2016-Jan-31 07:31N 46°11' W 123°51'3940.4
2016-Jan-31 06:33N 46°05' W 122°56'7286.3
2016-Jan-31 06:32N 46°10' W 123°03'335217.9
2016-Jan-31 06:31N 46°11' W 123°51'0 0.0
2016-Jan-31 05:31N 46°11' W 123°51'3317144.5
2016-Jan-31 05:31N 46°10' W 123°03'762.2
2016-Jan-31 05:24N 46°05' W 122°56'3944.3
2016-Jan-31 04:31N 46°11' W 123°51'33764.4
2016-Jan-31 04:29N 46°10' W 123°03'7292.8
2016-Jan-31 04:27N 46°05' W 122°56'3942.0
2016-Jan-31 03:31N 46°11' W 123°51'39569.8
2016-Jan-31 03:27N 46°05' W 122°56'796.9
2016-Jan-31 03:23N 46°10' W 123°03'0 0.0
2016-Jan-31 02:31N 46°10' W 123°03'33689.7
2016-Jan-31 02:28N 46°11' W 123°51'39232.3
2016-Jan-31 02:18N 46°05' W 122°56'3950.0
2016-Jan-31 01:31N 46°11' W 123°51'333158.2
2016-Jan-31 01:31N 46°10' W 123°03'7124.1
2016-Jan-31 01:27N 46°05' W 122°56'3942.0
2016-Jan-31 00:31N 46°11' W 123°51'33553.0
2016-Jan-31 00:28N 46°10' W 123°03'7789.6
2016-Jan-31 00:27N 46°05' W 122°56'3942.0
2016-Jan-30 23:31N 46°11' W 123°51'39567.5
2016-Jan-30 23:27N 46°05' W 122°56'7172.6
2016-Jan-30 23:25N 46°10' W 123°03'0 0.0
2016-Jan-30 22:31N 46°10' W 123°03'33827.7
2016-Jan-30 22:28N 46°11' W 123°51'0 0.0
2016-Jan-30 21:31N 46°11' W 123°51'39565.3
2016-Jan-30 21:27N 46°05' W 122°56'751.2
2016-Jan-30 21:19N 46°10' W 123°03'3339.7
2016-Jan-30 20:28N 46°11' W 123°51'39563.0
2016-Jan-30 20:24N 46°05' W 122°56'779.4
2016-Jan-30 20:19N 46°10' W 123°03'3342.2
2016-Jan-30 19:31N 46°11' W 123°51'391954.9
2016-Jan-30 19:30N 46°05' W 122°56'751.8
2016-Jan-30 19:22N 46°10' W 123°03'7 8.9
2016-Jan-30 18:33N 46°05' W 122°56'391315.4
2016-Jan-30 18:31N 46°11' W 123°51'0 0.0
2016-Jan-30 17:31N 46°11' W 123°51'3320002.0
2016-Jan-30 17:31N 46°10' W 123°03'727.0
2016-Jan-30 17:15N 46°05' W 122°56'3953.6
2016-Jan-30 16:31N 46°11' W 123°51'39554.1
2016-Jan-30 16:27N 46°05' W 122°56'7230.6
2016-Jan-30 16:25N 46°10' W 123°03'3337.1
2016-Jan-30 15:31N 46°11' W 123°51'333243.6
2016-Jan-30 15:31N 46°10' W 123°03'765.6
2016-Jan-30 15:24N 46°05' W 122°56'7 8.3
2016-Jan-30 14:32N 46°10' W 123°03'334800.5
2016-Jan-30 14:31N 46°11' W 123°51'391902.1
2016-Jan-30 14:30N 46°05' W 122°56'3939.9
2016-Jan-30 13:31N 46°11' W 123°51'3320002.0
2016-Jan-30 13:31N 46°10' W 123°03'742.9
2016-Jan-30 13:21N 46°05' W 122°56'0 0.0
2016-Jan-30 12:33N 46°05' W 122°56'391366.5
2016-Jan-30 12:31N 46°11' W 123°51'33655.8
2016-Jan-30 12:28N 46°10' W 123°03'3335.1
2016-Jan-30 11:31N 46°11' W 123°51'33302.3
2016-Jan-30 11:25N 46°10' W 123°03'784.3
2016-Jan-30 11:20N 46°05' W 122°56'3948.6
2016-Jan-30 10:31N 46°11' W 123°51'333243.6
2016-Jan-30 10:31N 46°10' W 123°03'7202.0
2016-Jan-30 10:29N 46°05' W 122°56'3941.0
2016-Jan-30 09:31N 46°11' W 123°51'39837.8
2016-Jan-30 09:29N 46°05' W 122°56'7114.8
2016-Jan-30 09:25N 46°10' W 123°03'7 8.2
2016-Jan-30 08:32N 46°05' W 122°56'3912795.6
2016-Jan-30 08:31N 46°11' W 123°51'33302.3
2016-Jan-30 08:25N 46°10' W 123°03'7 8.2
2016-Jan-30 07:32N 46°05' W 122°56'3914075.2
2016-Jan-30 07:31N 46°11' W 123°51'333333.7
2016-Jan-30 07:31N 46°10' W 123°03'3333.7
2016-Jan-30 06:31N 46°11' W 123°51'33566.1
2016-Jan-30 06:28N 46°10' W 123°03'725.1
2016-Jan-30 06:11N 46°05' W 122°56'0 0.0
2016-Jan-30 05:32N 46°05' W 122°56'3920107.4
2016-Jan-30 05:31N 46°11' W 123°51'33300.8
2016-Jan-30 05:25N 46°10' W 123°03'3337.4
2016-Jan-30 04:31N 46°11' W 123°51'39837.8
2016-Jan-30 04:29N 46°05' W 122°56'7116.3
2016-Jan-30 04:25N 46°10' W 123°03'3337.4
2016-Jan-30 03:31N 46°11' W 123°51'39402.1
2016-Jan-30 03:26N 46°05' W 122°56'7635.5
2016-Jan-30 03:25N 46°10' W 123°03'3337.4
2016-Jan-30 02:31N 46°11' W 123°51'334138.3
2016-Jan-30 02:31N 46°10' W 123°03'7183.5
2016-Jan-30 02:29N 46°05' W 122°56'3941.1
2016-Jan-30 01:31N 46°11' W 123°51'33553.0
2016-Jan-30 01:28N 46°10' W 123°03'738.4
2016-Jan-30 01:17N 46°05' W 122°56'3952.1
2016-Jan-30 00:31N 46°11' W 123°51'333158.2
2016-Jan-30 00:31N 46°10' W 123°03'7194.5
2016-Jan-30 00:29N 46°05' W 122°56'3941.0
2016-Jan-29 23:31N 46°11' W 123°51'3330002.9
2016-Jan-29 23:31N 46°10' W 123°03'749.2
2016-Jan-29 23:23N 46°05' W 122°56'0 0.0
2016-Jan-29 22:32N 46°05' W 122°56'3917594.0
2016-Jan-29 22:31N 46°11' W 123°51'33221.4
2016-Jan-29 22:22N 46°10' W 123°03'7 8.5
2016-Jan-29 21:32N 46°05' W 122°56'3928150.4
2016-Jan-29 21:31N 46°11' W 123°51'33645.2
2016-Jan-29 21:28N 46°10' W 123°03'3335.2
2016-Jan-29 20:31N 46°11' W 123°51'3317144.5
2016-Jan-29 20:31N 46°10' W 123°03'7154.2
2016-Jan-29 20:29N 46°05' W 122°56'3941.1
2016-Jan-29 19:31N 46°11' W 123°51'33302.3
2016-Jan-29 19:25N 46°10' W 123°03'738.6
2016-Jan-29 19:14N 46°05' W 122°56'3955.7
2016-Jan-29 18:31N 46°11' W 123°51'333529.7
2016-Jan-29 18:31N 46°10' W 123°03'738.3
2016-Jan-29 18:20N 46°05' W 122°56'3948.8
2016-Jan-29 17:31N 46°11' W 123°51'33553.0
2016-Jan-29 17:28N 46°10' W 123°03'730.3
2016-Jan-29 17:14N 46°05' W 122°56'0 0.0
2016-Jan-29 16:32N 46°05' W 122°56'3914075.2
2016-Jan-29 16:31N 46°11' W 123°51'33159.0
2016-Jan-29 16:19N 46°10' W 123°03'7 9.2
2016-Jan-29 15:32N 46°05' W 122°56'39140751.9
2016-Jan-29 15:32N 46°11' W 123°51'33550.5
2016-Jan-29 15:28N 46°10' W 123°03'3335.5
2016-Jan-29 14:31N 46°11' W 123°51'333333.7
2016-Jan-29 14:31N 46°10' W 123°03'738.3
2016-Jan-29 14:20N 46°05' W 122°56'  
Track history (hours):
 
Tides and Currents Weather Stations Pressure Air Temp Water Temp Dewpoint Dewpoint Depression Visibility Wind Speed Wind Dir Waves Ship Positions

Zarling

Owner: Clean Rivers Co-op, Portland, OR. More information available from US FCC via Universal Licensing System.

Last reported at 2016-Feb-08 13:32 UTC. Time now 2016-Feb-08 14:24 UTC.
Position N 46°11' W 123°51'.

Length 12 m.

Type: Pollution control. MMSI: 3699126.

Date/timePositionNaut miles runAvg speedWind from/ knotsBaromVisibWave heightAir tempDewpointWater temp
2016-Feb-08 13:32N 46°11' W 123°51'392994.7
2016-Feb-08 13:32N 46°05' W 122°56'791.1
2016-Feb-08 13:27N 46°10' W 123°03'1438.7
2016-Feb-08 13:05N 46°12' W 123°23'2035.8
2016-Feb-08 12:32N 46°11' W 123°51'20366.5
2016-Feb-08 12:29N 46°12' W 123°23'202035.7
2016-Feb-08 12:29N 46°05' W 122°56'790.2
2016-Feb-08 12:24N 46°10' W 123°03'3338.9
2016-Feb-08 11:32N 46°11' W 123°51'206396.7
2016-Feb-08 11:32N 46°12' W 123°23'20183.7
2016-Feb-08 11:26N 46°05' W 122°56'740.1
2016-Feb-08 11:15N 46°10' W 123°03'3347.3
2016-Feb-08 10:32N 46°11' W 123°51'205026.0
2016-Feb-08 10:32N 46°12' W 123°23'14348.9
2016-Feb-08 10:30N 46°10' W 123°03'3334.8
2016-Feb-08 09:32N 46°11' W 123°51'33137.0
2016-Feb-08 09:18N 46°10' W 123°03'141395.6
2016-Feb-08 09:17N 46°12' W 123°23'202035.7
2016-Feb-08 09:17N 46°05' W 122°56'3953.1
2016-Feb-08 08:32N 46°11' W 123°51'205026.0
2016-Feb-08 08:32N 46°12' W 123°23'14346.5
2016-Feb-08 08:30N 46°10' W 123°03'742.4
2016-Feb-08 08:20N 46°05' W 122°56'3949.8
2016-Feb-08 07:32N 46°11' W 123°51'33769.3
2016-Feb-08 07:30N 46°10' W 123°03'1466.3
2016-Feb-08 07:17N 46°12' W 123°23'20177.4
2016-Feb-08 07:10N 46°05' W 122°56'3962.0
2016-Feb-08 06:32N 46°11' W 123°51'20127.0
2016-Feb-08 06:23N 46°12' W 123°23'20177.0
2016-Feb-08 06:16N 46°05' W 122°56'0 0.0
2016-Feb-08 05:33N 46°05' W 122°56'396119.6
2016-Feb-08 05:32N 46°11' W 123°51'2064.4
2016-Feb-08 05:14N 46°12' W 123°23'14100.1
2016-Feb-08 05:06N 46°10' W 123°03'3359.8
2016-Feb-08 04:32N 46°11' W 123°51'20188.6
2016-Feb-08 04:26N 46°12' W 123°23'1473.6
2016-Feb-08 04:15N 46°10' W 123°03'3347.2
2016-Feb-08 03:32N 46°11' W 123°51'33774.3
2016-Feb-08 03:30N 46°10' W 123°03'7141.6
2016-Feb-08 03:27N 46°05' W 122°56'202035.7
2016-Feb-08 03:26N 46°12' W 123°23'2021.8
2016-Feb-08 02:32N 46°11' W 123°51'39414.0
2016-Feb-08 02:27N 46°05' W 122°56'0 0.0
2016-Feb-08 01:33N 46°05' W 122°56'398279.5
2016-Feb-08 01:33N 46°11' W 123°51'33759.6
2016-Feb-08 01:30N 46°10' W 123°03'7 7.6
2016-Feb-08 00:33N 46°05' W 122°56'399383.5
2016-Feb-08 00:33N 46°11' W 123°51'2058.8
2016-Feb-08 00:13N 46°12' W 123°23'141225.4
2016-Feb-08 00:12N 46°10' W 123°03'3350.7
2016-Feb-07 23:32N 46°11' W 123°51'33779.3
2016-Feb-07 23:30N 46°10' W 123°03'1448.4
2016-Feb-07 23:13N 46°12' W 123°23'1421.1
2016-Feb-07 22:33N 46°10' W 123°03'336000.6
2016-Feb-07 22:33N 46°11' W 123°51'20606.6
2016-Feb-07 22:31N 46°12' W 123°23'201526.8
2016-Feb-07 22:30N 46°05' W 122°56'3941.0
2016-Feb-07 21:33N 46°11' W 123°51'33354.0
2016-Feb-07 21:27N 46°10' W 123°03'7142.5
2016-Feb-07 21:24N 46°05' W 122°56'0 0.0
2016-Feb-07 20:33N 46°05' W 122°56'398797.0
2016-Feb-07 20:33N 46°11' W 123°51'20236.1
2016-Feb-07 20:28N 46°12' W 123°23'1486.8
2016-Feb-07 20:18N 46°10' W 123°03'3344.1
2016-Feb-07 19:33N 46°11' W 123°51'20237.7
2016-Feb-07 19:28N 46°12' W 123°23'201559.3
2016-Feb-07 19:27N 46°05' W 122°56'0 0.0
2016-Feb-07 18:33N 46°05' W 122°56'398797.0
2016-Feb-07 18:33N 46°11' W 123°51'20106.8
2016-Feb-07 18:22N 46°12' W 123°23'14126.2
2016-Feb-07 18:15N 46°10' W 123°03'3347.2
2016-Feb-07 17:33N 46°11' W 123°51'39268.6
2016-Feb-07 17:24N 46°05' W 122°56'20233.4
2016-Feb-07 17:19N 46°12' W 123°23'1418.4
2016-Feb-07 16:33N 46°10' W 123°03'336000.6
2016-Feb-07 16:33N 46°11' W 123°51'20146.6
2016-Feb-07 16:25N 46°12' W 123°23'20321.4
2016-Feb-07 16:21N 46°05' W 122°56'0 0.0
2016-Feb-07 15:33N 46°05' W 122°56'3911729.3
2016-Feb-07 15:33N 46°11' W 123°51'33759.6
2016-Feb-07 15:30N 46°10' W 123°03'14155.6
2016-Feb-07 15:25N 46°12' W 123°23'1416.4
2016-Feb-07 14:34N 46°10' W 123°03'7635.5
2016-Feb-07 14:33N 46°05' W 122°56'398797.0
2016-Feb-07 14:33N 46°11' W 123°51'2069.3
2016-Feb-07 14:16N 46°12' W 123°23'1419.9
2016-Feb-07 13:34N 46°10' W 123°03'332182.0
2016-Feb-07 13:33N 46°11' W 123°51'20122.8
2016-Feb-07 13:23N 46°12' W 123°23'20563.7
2016-Feb-07 13:21N 46°05' W 122°56'3948.6
2016-Feb-07 12:33N 46°11' W 123°51'202198.9
2016-Feb-07 12:32N 46°12' W 123°23'20108.9
2016-Feb-07 12:21N 46°05' W 122°56'7184.8
2016-Feb-07 12:18N 46°10' W 123°03'3343.6
2016-Feb-07 11:33N 46°11' W 123°51'202010.4
2016-Feb-07 11:32N 46°12' W 123°23'14540.2
2016-Feb-07 11:31N 46°10' W 123°03'7117.4
2016-Feb-07 11:27N 46°05' W 122°56'0 0.0
2016-Feb-07 10:33N 46°05' W 122°56'3914075.2
2016-Feb-07 10:33N 46°11' W 123°51'201804.2
2016-Feb-07 10:32N 46°12' W 123°23'14185.4
2016-Feb-07 10:27N 46°10' W 123°03'7 7.9
2016-Feb-07 09:33N 46°05' W 122°56'202093.9
2016-Feb-07 09:32N 46°12' W 123°23'14425.8
2016-Feb-07 09:30N 46°10' W 123°03'0 0.0
2016-Feb-07 08:33N 46°10' W 123°03'7868.6
2016-Feb-07 08:33N 46°05' W 122°56'39804.3
2016-Feb-07 08:30N 46°11' W 123°51'20330.3
2016-Feb-07 08:26N 46°12' W 123°23'1415.8
2016-Feb-07 07:33N 46°10' W 123°03'336667.3
2016-Feb-07 07:33N 46°11' W 123°51'39255.4
2016-Feb-07 07:24N 46°05' W 122°56'3946.1
2016-Feb-07 06:33N 46°11' W 123°51'33769.3
2016-Feb-07 06:30N 46°10' W 123°03'7930.6
2016-Feb-07 06:30N 46°05' W 122°56'202364.1
2016-Feb-07 06:29N 46°12' W 123°23'2020.8
2016-Feb-07 05:33N 46°11' W 123°51'33759.6
2016-Feb-07 05:30N 46°10' W 123°03'7898.5
2016-Feb-07 05:30N 46°05' W 122°56'202220.8
2016-Feb-07 05:29N 46°12' W 123°23'1415.0
2016-Feb-07 04:33N 46°10' W 123°03'335714.8
2016-Feb-07 04:33N 46°11' W 123°51'3915639.1
2016-Feb-07 04:33N 46°05' W 122°56'20347.3
2016-Feb-07 04:29N 46°12' W 123°23'1415.0
2016-Feb-07 03:33N 46°10' W 123°03'335714.8
2016-Feb-07 03:33N 46°11' W 123°51'20317.0
2016-Feb-07 03:29N 46°12' W 123°23'20222.1
2016-Feb-07 03:24N 46°05' W 122°56'3946.1
2016-Feb-07 02:33N 46°11' W 123°51'3915639.1
2016-Feb-07 02:33N 46°05' W 122°56'7181.0
2016-Feb-07 02:30N 46°10' W 123°03'1443.9
2016-Feb-07 02:11N 46°12' W 123°23'2030.6
2016-Feb-07 01:33N 46°11' W 123°51'33774.3
2016-Feb-07 01:30N 46°10' W 123°03'7704.2
2016-Feb-07 01:30N 46°05' W 122°56'202714.3
2016-Feb-07 01:29N 46°12' W 123°23'2020.8
2016-Feb-07 00:33N 46°11' W 123°51'201675.3
2016-Feb-07 00:32N 46°12' W 123°23'14440.7
2016-Feb-07 00:30N 46°10' W 123°03'0 0.0
2016-Feb-06 23:33N 46°10' W 123°03'338000.7
2016-Feb-06 23:33N 46°11' W 123°51'397819.4
2016-Feb-06 23:33N 46°05' W 122°56'202364.1
2016-Feb-06 23:32N 46°12' W 123°23'2019.8
2016-Feb-06 22:33N 46°11' W 123°51'39736.9
2016-Feb-06 22:30N 46°05' W 122°56'3941.3
2016-Feb-06 21:33N 46°11' W 123°51'33759.6
2016-Feb-06 21:30N 46°10' W 123°03'14208.5
2016-Feb-06 21:26N 46°12' W 123°23'2069.6
2016-Feb-06 21:09N 46°05' W 122°56'3965.6
2016-Feb-06 20:33N 46°11' W 123°51'33355.1
2016-Feb-06 20:27N 46°10' W 123°03'7120.1
2016-Feb-06 20:24N 46°05' W 122°56'20347.4
2016-Feb-06 20:20N 46°12' W 123°23'1417.9
2016-Feb-06 19:33N 46°10' W 123°03'334615.8
2016-Feb-06 19:33N 46°11' W 123°51'201599.2
2016-Feb-06 19:32N 46°12' W 123°23'20495.2
2016-Feb-06 19:30N 46°05' W 122°56'3941.3
2016-Feb-06 18:33N 46°11' W 123°51'39192.0
2016-Feb-06 18:21N 46°05' W 122°56'780.7
2016-Feb-06 18:15N 46°10' W 123°03'3347.2
2016-Feb-06 17:33N 46°11' W 123°51'201465.9
2016-Feb-06 17:32N 46°12' W 123°23'14448.6
2016-Feb-06 17:30N 46°10' W 123°03'7723.8
2016-Feb-06 17:30N 46°05' W 122°56'3941.3
2016-Feb-06 16:33N 46°11' W 123°51'33754.8
2016-Feb-06 16:30N 46°10' W 123°03'14117.9
2016-Feb-06 16:23N 46°12' W 123°23'2069.8
2016-Feb-06 16:06N 46°05' W 122°56'713.4
2016-Feb-06 15:33N 46°10' W 123°03'334615.8
2016-Feb-06 15:33N 46°11' W 123°51'3911729.3
2016-Feb-06 15:33N 46°05' W 122°56'2078.6
2016-Feb-06 15:17N 46°12' W 123°23'2026.6
2016-Feb-06 14:33N 46°11' W 123°51'201353.1
2016-Feb-06 14:32N 46°12' W 123°23'1477.4
2016-Feb-06 14:21N 46°10' W 123°03'744.9
2016-Feb-06 14:12N 46°05' W 122°56'3956.2
2016-Feb-06 13:30N 46°11' W 123°51'20308.6
2016-Feb-06 13:26N 46°12' W 123°23'14173.3
2016-Feb-06 13:21N 46°10' W 123°03'7111.8
2016-Feb-06 13:17N 46°05' W 122°56'3952.8
2016-Feb-06 12:33N 46°11' W 123°51'33754.8
2016-Feb-06 12:30N 46°10' W 123°03'14707.7
2016-Feb-06 12:29N 46°12' W 123°23'20449.6
2016-Feb-06 12:26N 46°05' W 122°56'3943.9
2016-Feb-06 11:33N 46°11' W 123°51'20170.8
2016-Feb-06 11:26N 46°12' W 123°23'20446.9
2016-Feb-06 11:23N 46°05' W 122°56'753.8
2016-Feb-06 11:15N 46°10' W 123°03'3347.1
2016-Feb-06 10:33N 46°11' W 123°51'395026.9
2016-Feb-06 10:32N 46°05' W 122°56'7206.8
2016-Feb-06 10:30N 46°10' W 123°03'1463.7
2016-Feb-06 10:17N 46°12' W 123°23'2026.5
2016-Feb-06 09:33N 46°11' W 123°51'201379.7
2016-Feb-06 09:32N 46°12' W 123°23'14469.6
2016-Feb-06 09:30N 46°10' W 123°03'762.5
2016-Feb-06 09:23N 46°05' W 122°56'3946.6
2016-Feb-06 08:33N 46°11' W 123°51'201256.5
2016-Feb-06 08:32N 46°12' W 123°23'14176.9
2016-Feb-06 08:27N 46°10' W 123°03'7110.4
2016-Feb-06 08:23N 46°05' W 122°56'3946.6
2016-Feb-06 07:33N 46°11' W 123°51'201353.1
2016-Feb-06 07:32N 46°12' W 123°23'1477.5
2016-Feb-06 07:21N 46°10' W 123°03'743.5
2016-Feb-06 07:11N 46°05' W 122°56'711.4
2016-Feb-06 06:33N 46°10' W 123°03'335000.5
2016-Feb-06 06:33N 46°11' W 123°51'201379.7
2016-Feb-06 06:32N 46°12' W 123°23'2045.7
2016-Feb-06 06:05N 46°05' W 122°56'713.5
2016-Feb-06 05:33N 46°10' W 123°03'335455.1
2016-Feb-06 05:33N 46°11' W 123°51'39651.6
2016-Feb-06 05:29N 46°05' W 122°56'20372.0
2016-Feb-06 05:26N 46°12' W 123°23'2022.1
2016-Feb-06 04:33N 46°11' W 123°51'393804.1
2016-Feb-06 04:32N 46°05' W 122°56'7213.6
2016-Feb-06 04:30N 46°10' W 123°03'14669.9
2016-Feb-06 04:29N 46°12' W 123°23'2020.9
2016-Feb-06 03:33N 46°11' W 123°51'394398.5
2016-Feb-06 03:32N 46°05' W 122°56'20373.9
2016-Feb-06 03:29N 46°12' W 123°23'1449.9
2016-Feb-06 03:12N 46°10' W 123°03'0 0.0
2016-Feb-06 02:33N 46°10' W 123°03'336316.4
2016-Feb-06 02:33N 46°11' W 123°51'39636.9
2016-Feb-06 02:29N 46°05' W 122°56'204310.9
2016-Feb-06 02:29N 46°12' W 123°23'2020.9
2016-Feb-06 01:33N 46°11' W 123°51'393704.0
2016-Feb-06 01:32N 46°05' W 122°56'786.3
2016-Feb-06 01:27N 46°10' W 123°03'1481.6
2016-Feb-06 01:17N 46°12' W 123°23'2026.6
2016-Feb-06 00:33N 46°11' W 123°51'393351.2
2016-Feb-06 00:32N 46°05' W 122°56'204310.9
2016-Feb-06 00:32N 46°12' W 123°23'2019.8
2016-Feb-05 23:33N 46°11' W 123°51'39651.6
2016-Feb-05 23:29N 46°05' W 122°56'7217.1
2016-Feb-05 23:27N 46°10' W 123°03'0 0.0
2016-Feb-05 22:33N 46°10' W 123°03'336316.4
2016-Feb-05 22:33N 46°11' W 123°51'39348.4
2016-Feb-05 22:26N 46°05' W 122°56'7 8.2
2016-Feb-05 21:33N 46°10' W 123°03'335455.1
2016-Feb-05 21:33N 46°11' W 123°51'361858.5
2016-Feb-05 21:32N 46°08' W 123°00'3 3.3
2016-Feb-05 20:33N 46°10' W 123°03'335217.9
2016-Feb-05 20:33N 46°11' W 123°51'3817318.2
2016-Feb-05 20:33N 46°06' W 122°56'201539.8
2016-Feb-05 20:32N 46°12' W 123°23'1414.3
2016-Feb-05 19:33N 46°10' W 123°03'335217.9
2016-Feb-05 19:33N 46°11' W 123°51'20242.6
2016-Feb-05 19:28N 46°12' W 123°23'25186.6
2016-Feb-05 19:20N 46°01' W 122°51'4355.3
2016-Feb-05 18:33N 46°11' W 123°51'20633.9
2016-Feb-05 18:31N 46°12' W 123°23'141225.4
2016-Feb-05 18:30N 46°10' W 123°03'13524.8
2016-Feb-05 18:29N 46°01' W 122°51'1314.0
2016-Feb-05 17:33N 46°10' W 123°03'335000.5
2016-Feb-05 17:33N 46°11' W 123°51'20617.2
2016-Feb-05 17:31N 46°12' W 123°23'20396.1
2016-Feb-05 17:28N 46°05' W 122°56'3942.6
2016-Feb-05 16:33N 46°11' W 123°51'39168.0
2016-Feb-05 16:19N 46°05' W 122°56'7704.2
2016-Feb-05 16:18N 46°10' W 123°03'1474.2
2016-Feb-05 16:07N 46°12' W 123°23'2034.4
2016-Feb-05 15:33N 46°11' W 123°51'391182.8
2016-Feb-05 15:31N 46°05' W 122°56'727.8
2016-Feb-05 15:15N 46°10' W 123°03'3347.2
2016-Feb-05 14:33N 46°11' W 123°51'33354.0
2016-Feb-05 14:27N 46°10' W 123°03'14101.3
2016-Feb-05 14:19N 46°12' W 123°23'20134.5
2016-Feb-05 14:10N 46°05' W 122°56'3963.3
2016-Feb-05 13:33N 46°11' W 123°51'33764.4
2016-Feb-05 13:30N 46°10' W 123°03'7183.5
2016-Feb-05 13:28N 46°05' W 122°56'20102.1
2016-Feb-05 13:16N 46°12' W 123°23'1419.6
2016-Feb-05 12:33N 46°10' W 123°03'33591.2
2016-Feb-05 12:30N 46°11' W 123°51'20622.7
2016-Feb-05 12:28N 46°12' W 123°23'20391.9
2016-Feb-05 12:25N 46°05' W 122°56'3945.1
2016-Feb-05 11:33N 46°11' W 123°51'33356.1
2016-Feb-05 11:27N 46°10' W 123°03'7491.6
2016-Feb-05 11:27N 46°05' W 122°56'20275.5
2016-Feb-05 11:22N 46°12' W 123°23'2023.9
2016-Feb-05 10:33N 46°11' W 123°51'39676.7
2016-Feb-05 10:30N 46°05' W 122°56'7205.3
2016-Feb-05 10:27N 46°10' W 123°03'14358.9
2016-Feb-05 10:25N 46°12' W 123°23'2022.5
2016-Feb-05 09:33N 46°11' W 123°51'394398.5
2016-Feb-05 09:33N 46°05' W 122°56'20842.4
2016-Feb-05 09:31N 46°12' W 123°23'141225.4
2016-Feb-05 09:30N 46°10' W 123°03'0 0.0
2016-Feb-05 08:33N 46°10' W 123°03'335000.5
2016-Feb-05 08:33N 46°11' W 123°51'39361.8
2016-Feb-05 08:27N 46°05' W 122°56'20163.6
2016-Feb-05 08:19N 46°12' W 123°23'1418.4
2016-Feb-05 07:33N 46°10' W 123°03'335217.9
2016-Feb-05 07:33N 46°11' W 123°51'394540.4
2016-Feb-05 07:33N 46°05' W 122°56'20823.4
2016-Feb-05 07:31N 46°12' W 123°23'1414.5
2016-Feb-05 06:33N 46°10' W 123°03'335714.8
2016-Feb-05 06:33N 46°11' W 123°51'2051.1
2016-Feb-05 06:10N 46°12' W 123°23'1422.9
2016-Feb-05 05:34N 46°10' W 123°03'142392.5
2016-Feb-05 05:33N 46°12' W 123°23'2017590.9
2016-Feb-05 05:33N 46°11' W 123°51'393198.9
2016-Feb-05 05:32N 46°05' W 122°56'3939.6
2016-Feb-05 04:33N 46°11' W 123°51'20395.3
2016-Feb-05 04:30N 46°12' W 123°23'201495.6
2016-Feb-05 04:29N 46°05' W 122°56'7236.9
2016-Feb-05 04:28N 46°10' W 123°03'3336.8
2016-Feb-05 03:33N 46°11' W 123°51'20395.3
2016-Feb-05 03:30N 46°12' W 123°23'201465.7
2016-Feb-05 03:29N 46°05' W 122°56'7236.9
2016-Feb-05 03:28N 46°10' W 123°03'3336.8
2016-Feb-05 02:33N 46°11' W 123°51'39609.3
2016-Feb-05 02:29N 46°05' W 122°56'20236.4
2016-Feb-05 02:24N 46°12' W 123°23'1457.0
2016-Feb-05 02:10N 46°10' W 123°03'3355.0
2016-Feb-05 01:33N 46°11' W 123°51'398289.0
2016-Feb-05 01:33N 46°05' W 122°56'20459.1
2016-Feb-05 01:30N 46°12' W 123°23'1497.0
2016-Feb-05 01:22N 46°10' W 123°03'3341.4
2016-Feb-05 00:33N 46°11' W 123°51'20384.5
2016-Feb-05 00:30N 46°12' W 123°23'27713.9
2016-Feb-05 00:28N 45°59' W 122°50'142173.0
2016-Feb-05 00:28N 46°10' W 123°03'3336.8
2016-Feb-04 23:33N 46°11' W 123°51'3917593.6
2016-Feb-04 23:33N 46°05' W 122°56'7173.7
2016-Feb-04 23:31N 46°10' W 123°03'14251.2
2016-Feb-04 23:27N 46°12' W 123°23'2021.7
2016-Feb-04 22:33N 46°11' W 123°51'3920107.4
2016-Feb-04 22:33N 46°05' W 122°56'737.7
2016-Feb-04 22:22N 46°10' W 123°03'142283.8
2016-Feb-04 22:21N 46°12' W 123°23'2024.5
2016-Feb-04 21:33N 46°11' W 123°51'33745.4
2016-Feb-04 21:31N 46°10' W 123°03'7868.6
2016-Feb-04 21:30N 46°05' W 122°56'20102.9
2016-Feb-04 21:18N 46°12' W 123°23'2026.1
2016-Feb-04 20:33N 46°11' W 123°51'20390.9
2016-Feb-04 20:30N 46°12' W 123°23'14322.1
2016-Feb-04 20:28N 46°10' W 123°03'766.6
2016-Feb-04 20:21N 46°05' W 122°56'3949.1
2016-Feb-04 19:33N 46°11' W 123°51'20380.4
2016-Feb-04 19:30N 46°12' W 123°23'14322.1
2016-Feb-04 19:28N 46°10' W 123°03'766.6
2016-Feb-04 19:21N 46°05' W 122°56'3949.1
2016-Feb-04 18:33N 46°11' W 123°51'2070364.9
2016-Feb-04 18:33N 46°12' W 123°23'1471.9
2016-Feb-04 18:22N 46°10' W 123°03'7868.6
2016-Feb-04 18:21N 46°05' W 122°56'3949.0
2016-Feb-04 17:33N 46°11' W 123°51'3911729.3
2016-Feb-04 17:33N 46°05' W 122°56'7178.5
2016-Feb-04 17:31N 46°10' W 123°03'14241.6
2016-Feb-04 17:27N 46°12' W 123°23'2021.8
2016-Feb-04 16:33N 46°11' W 123°51'39254.5
2016-Feb-04 16:24N 46°05' W 122°56'7178.5
2016-Feb-04 16:22N 46°10' W 123°03'1467.4
2016-Feb-04 16:09N 46°12' W 123°23'2032.6
2016-Feb-04 15:33N 46°11' W 123°51'2014072.8
2016-Feb-04 15:33N 46°12' W 123°23'2014657.1
2016-Feb-04 15:33N 46°05' W 122°56'7177.3
2016-Feb-04 15:31N 46°10' W 123°03'3334.9
2016-Feb-04 14:33N 46°11' W 123°51'2014072.8
2016-Feb-04 14:33N 46°12' W 123°23'14335.0
2016-Feb-04 14:31N 46°10' W 123°03'765.6
2016-Feb-04 14:24N 46°05' W 122°56'3946.2
2016-Feb-04 13:33N 46°11' W 123°51'2014073.0
2016-Feb-04 13:33N 46°12' W 123°23'20400.5
2016-Feb-04 13:30N 46°05' W 122°56'7177.3
2016-Feb-04 13:28N 46°10' W 123°03'3336.8
2016-Feb-04 12:33N 46°11' W 123°51'207818.2
2016-Feb-04 12:33N 46°12' W 123°23'2014657.1
2016-Feb-04 12:33N 46°05' W 122°56'7181.0
2016-Feb-04 12:31N 46°10' W 123°03'3334.9
2016-Feb-04 11:33N 46°11' W 123°51'33740.8
2016-Feb-04 11:31N 46°10' W 123°03'141794.4
2016-Feb-04 11:30N 46°12' W 123°23'20387.8
2016-Feb-04 11:27N 46°05' W 122°56'3943.6
2016-Feb-04 10:33N 46°11' W 123°51'20380.3
2016-Feb-04 10:30N 46°12' W 123°23'14154.1
2016-Feb-04 10:25N 46°10' W 123°03'7117.9
2016-Feb-04 10:21N 46°05' W 122°56'3949.2
2016-Feb-04 09:33N 46°11' W 123°51'398279.5
2016-Feb-04 09:33N 46°05' W 122°56'7182.2
2016-Feb-04 09:31N 46°10' W 123°03'14238.1
2016-Feb-04 09:27N 46°12' W 123°23'2021.8
2016-Feb-04 08:33N 46°11' W 123°51'2011727.5
2016-Feb-04 08:33N 46°12' W 123°23'20391.9
2016-Feb-04 08:30N 46°05' W 122°56'7182.2
2016-Feb-04 08:28N 46°10' W 123°03'3336.8
2016-Feb-04 07:33N 46°11' W 123°51'3911729.3
2016-Feb-04 07:33N 46°05' W 122°56'7182.2
2016-Feb-04 07:31N 46°10' W 123°03'1434.2
2016-Feb-04 07:06N 46°12' W 123°23'2035.7
2016-Feb-04 06:33N 46°11' W 123°51'207818.2
2016-Feb-04 06:33N 46°12' W 123°23'14335.0
2016-Feb-04 06:31N 46°10' W 123°03'7704.2
2016-Feb-04 06:30N 46°05' W 122°56'3941.4
2016-Feb-04 05:33N 46°11' W 123°51'20364.6
2016-Feb-04 05:30N 46°12' W 123°23'20389.8
2016-Feb-04 05:27N 46°05' W 122°56'7188.8
2016-Feb-04 05:25N 46°10' W 123°03'3338.9
2016-Feb-04 04:33N 46°11' W 123°51'3910827.1
2016-Feb-04 04:33N 46°05' W 122°56'20207.0
2016-Feb-04 04:27N 46°12' W 123°23'14348.9
2016-Feb-04 04:25N 46°10' W 123°03'3338.9
2016-Feb-04 03:33N 46°11' W 123°51'20382.4
2016-Feb-04 03:30N 46°12' W 123°23'20381.7
2016-Feb-04 03:27N 46°05' W 122°56'781.4
2016-Feb-04 03:22N 46°10' W 123°03'3341.3
2016-Feb-04 02:33N 46°11' W 123°51'398797.0
2016-Feb-04 02:33N 46°05' W 122°56'7181.0
2016-Feb-04 02:31N 46°10' W 123°03'142009.7
2016-Feb-04 02:30N 46°12' W 123°23'2020.6
2016-Feb-04 01:33N 46°11' W 123°51'33353.0
2016-Feb-04 01:28N 46°10' W 123°03'14233.7
2016-Feb-04 01:24N 46°12' W 123°23'20100.9
2016-Feb-04 01:12N 46°05' W 122°56'3960.6
2016-Feb-04 00:33N 46°11' W 123°51'398797.0
2016-Feb-04 00:33N 46°05' W 122°56'7191.6
2016-Feb-04 00:31N 46°10' W 123°03'141357.9
2016-Feb-04 00:30N 46°12' W 123°23'2020.7
2016-Feb-03 23:33N 46°11' W 123°51'396397.7
2016-Feb-03 23:33N 46°05' W 122°56'7193.0
2016-Feb-03 23:31N 46°10' W 123°03'1466.2
2016-Feb-03 23:18N 46°12' W 123°23'2026.2
2016-Feb-03 22:33N 46°11' W 123°51'33113.4
2016-Feb-03 22:16N 46°10' W 123°03'7620.4
2016-Feb-03 22:15N 46°05' W 122°56'20418.8
2016-Feb-03 22:12N 46°12' W 123°23'2030.3
2016-Feb-03 21:33N 46°11' W 123°51'396702.5
2016-Feb-03 21:33N 46°05' W 122°56'206107.1
2016-Feb-03 21:33N 46°12' W 123°23'14395.6
2016-Feb-03 21:31N 46°10' W 123°03'3334.9
2016-Feb-03 20:33N 46°11' W 123°51'202814.6
2016-Feb-03 20:33N 46°12' W 123°23'14102.5
2016-Feb-03 20:25N 46°10' W 123°03'744.5
2016-Feb-03 20:15N 46°05' W 122°56'3956.3
2016-Feb-03 19:33N 46°11' W 123°51'33774.3
2016-Feb-03 19:31N 46°10' W 123°03'7566.5
2016-Feb-03 19:30N 46°05' W 122°56'2010469.4
2016-Feb-03 19:30N 46°12' W 123°23'2020.7
2016-Feb-03 18:33N 46°11' W 123°51'20335.1
2016-Feb-03 18:30N 46°12' W 123°23'20428.6
2016-Feb-03 18:27N 46°05' W 122°56'718.7
2016-Feb-03 18:04N 46°10' W 123°03'3365.8
2016-Feb-03 17:33N 46°11' W 123°51'396397.8
2016-Feb-03 17:33N 46°05' W 122°56'7195.9
2016-Feb-03 17:31N 46°10' W 123°03'3334.8
2016-Feb-03 16:33N 46°11' W 123°51'202269.8
2016-Feb-03 16:33N 46°12' W 123°23'14166.4
2016-Feb-03 16:28N 46°10' W 123°03'3336.7
2016-Feb-03 15:33N 46°11' W 123°51'33120011.7
2016-Feb-03 15:33N 46°10' W 123°03'768.6
2016-Feb-03 15:27N 46°05' W 122°56'20100.5
2016-Feb-03 15:15N 46°12' W 123°23'2028.3
2016-Feb-03 14:33N 46°11' W 123°51'395413.5
2016-Feb-03 14:33N 46°05' W 122°56'20391.9
2016-Feb-03 14:30N 46°12' W 123°23'1497.7
2016-Feb-03 14:21N 46°10' W 123°03'3341.7
2016-Feb-03 13:33N 46°11' W 123°51'396119.6
2016-Feb-03 13:33N 46°05' W 122°56'7159.9
2016-Feb-03 13:30N 46°10' W 123°03'14188.9
2016-Feb-03 13:26N 46°12' W 123°23'2022.4
2016-Feb-03 12:34N 46°11' W 123°51'395213.0
2016-Feb-03 12:33N 46°05' W 122°56'20293.1
2016-Feb-03 12:29N 46°12' W 123°23'14184.7
2016-Feb-03 12:24N 46°10' W 123°03'3339.3
2016-Feb-03 11:33N 46°11' W 123°51'395864.7
2016-Feb-03 11:33N 46°05' W 122°56'201077.7
2016-Feb-03 11:32N 46°12' W 123°23'14546.1
2016-Feb-03 11:30N 46°10' W 123°03'3335.1
2016-Feb-03 10:33N 46°11' W 123°51'3324002.3
2016-Feb-03 10:33N 46°10' W 123°03'14570.9
2016-Feb-03 10:32N 46°12' W 123°23'20654.3
2016-Feb-03 10:30N 46°05' W 122°56'3941.5
2016-Feb-03 09:33N 46°11' W 123°51'20256.8
2016-Feb-03 09:29N 46°12' W 123°23'14185.4
2016-Feb-03 09:24N 46°10' W 123°03'7130.9
2016-Feb-03 09:21N 46°05' W 122°56'3949.4
2016-Feb-03 08:34N 46°11' W 123°51'3313334.6
2016-Feb-03 08:33N 46°10' W 123°03'71302.9
2016-Feb-03 08:33N 46°05' W 122°56'20213.7
2016-Feb-03 08:27N 46°12' W 123°23'2021.8
2016-Feb-03 07:34N 46°11' W 123°51'20189.7
2016-Feb-03 07:27N 46°12' W 123°23'204580.4
2016-Feb-03 07:27N 46°05' W 122°56'3943.8
2016-Feb-03 06:33N 46°11' W 123°51'3324002.3
2016-Feb-03 06:33N 46°10' W 123°03'14217.5
2016-Feb-03 06:30N 46°12' W 123°23'20106.8
2016-Feb-03 06:18N 46°05' W 122°56'3952.6
2016-Feb-03 05:34N 46°11' W 123°51'3320002.0
2016-Feb-03 05:33N 46°10' W 123°03'71184.4
2016-Feb-03 05:33N 46°05' W 122°56'20128.8
2016-Feb-03 05:24N 46°12' W 123°23'2023.4
2016-Feb-03 04:34N 46°11' W 123°51'395213.0
2016-Feb-03 04:33N 46°05' W 122°56'7166.0
2016-Feb-03 04:30N 46°10' W 123°03'14122.8
2016-Feb-03 04:24N 46°12' W 123°23'2023.4
2016-Feb-03 03:34N 46°11' W 123°51'3324002.3
2016-Feb-03 03:33N 46°10' W 123°03'71240.8
2016-Feb-03 03:33N 46°05' W 122°56'20350.6
2016-Feb-03 03:30N 46°12' W 123°23'2020.9
2016-Feb-03 02:34N 46°11' W 123°51'33359.3
2016-Feb-03 02:28N 46°10' W 123°03'7482.5
2016-Feb-03 02:27N 46°05' W 122°56'20355.8
2016-Feb-03 02:24N 46°12' W 123°23'2022.1
2016-Feb-03 01:31N 46°11' W 123°51'39680.0
2016-Feb-03 01:27N 46°05' W 122°56'784.6
2016-Feb-03 01:22N 46°10' W 123°03'3338.9
2016-Feb-03 00:31N 46°11' W 123°51'394691.7
2016-Feb-03 00:30N 46°05' W 122°56'202290.4
2016-Feb-03 00:30N 46°12' W 123°23'14546.1
2016-Feb-03 00:28N 46°10' W 123°03'0 0.0
2016-Feb-02 23:31N 46°10' W 123°03'334800.4
2016-Feb-02 23:31N 46°11' W 123°51'201256.5
2016-Feb-02 23:30N 46°12' W 123°23'20142.6
2016-Feb-02 23:21N 46°05' W 122°56'7 8.7
2016-Feb-02 22:31N 46°10' W 123°03'334800.5
2016-Feb-02 22:31N 46°11' W 123°51'39188.2
2016-Feb-02 22:18N 46°05' W 122°56'0 0.0
2016-Feb-02 21:33N 46°05' W 122°56'7213.6
2016-Feb-02 21:31N 46°10' W 123°03'334286.1
2016-Feb-02 21:31N 46°11' W 123°51'3333.6
2016-Feb-02 20:31N 46°10' W 123°03'334800.5
2016-Feb-02 20:31N 46°11' W 123°51'394398.5
2016-Feb-02 20:30N 46°05' W 122°56'20349.0
2016-Feb-02 20:27N 46°12' W 123°23'2022.8
2016-Feb-02 19:33N 46°05' W 122°56'202527.1
2016-Feb-02 19:33N 46°12' W 123°23'20601.4
2016-Feb-02 19:31N 46°11' W 123°51'33759.6
2016-Feb-02 19:28N 46°10' W 123°03'0 0.0
2016-Feb-02 18:34N 46°10' W 123°03'33689.7
2016-Feb-02 18:31N 46°11' W 123°51'394265.1
2016-Feb-02 18:30N 46°05' W 122°56'20188.9
2016-Feb-02 18:24N 46°12' W 123°23'2022.1
2016-Feb-02 17:31N 46°11' W 123°51'394139.8
2016-Feb-02 17:30N 46°05' W 122°56'202818.7
2016-Feb-02 17:30N 46°12' W 123°23'14392.5
2016-Feb-02 17:27N 46°10' W 123°03'0 0.0
2016-Feb-02 16:34N 46°10' W 123°03'33689.7
2016-Feb-02 16:31N 46°11' W 123°51'394265.2
2016-Feb-02 16:30N 46°05' W 122°56'202527.1
2016-Feb-02 16:30N 46°12' W 123°23'2021.6
2016-Feb-02 15:33N 46°05' W 122°56'202442.9
2016-Feb-02 15:33N 46°12' W 123°23'20617.2
2016-Feb-02 15:31N 46°11' W 123°51'3317144.5
2016-Feb-02 15:31N 46°10' W 123°03'0 0.0
2016-Feb-02 14:34N 46°10' W 123°03'14866.3
2016-Feb-02 14:33N 46°12' W 123°23'20606.6
2016-Feb-02 14:31N 46°11' W 123°51'39358.1
2016-Feb-02 14:24N 46°05' W 122°56'0 0.0
2016-Feb-02 13:33N 46°05' W 122°56'202818.7
2016-Feb-02 13:33N 46°12' W 123°23'20606.6
2016-Feb-02 13:31N 46°11' W 123°51'33219.0
2016-Feb-02 13:22N 46°10' W 123°03'3339.3
2016-Feb-02 12:31N 46°11' W 123°51'20284.9
2016-Feb-02 12:27N 46°12' W 123°23'20485.3
2016-Feb-02 12:24N 46°05' W 122°56'751.2
2016-Feb-02 12:16N 46°10' W 123°03'710.2
2016-Feb-02 11:33N 46°05' W 122°56'202617.3
2016-Feb-02 11:33N 46°12' W 123°23'20633.9
2016-Feb-02 11:31N 46°11' W 123°51'3324002.3
2016-Feb-02 11:31N 46°10' W 123°03'1414.4
2016-Feb-02 10:33N 46°12' W 123°23'20617.2
2016-Feb-02 10:31N 46°11' W 123°51'393704.0
2016-Feb-02 10:30N 46°05' W 122°56'779.2
2016-Feb-02 10:25N 46°10' W 123°03'7 8.4
2016-Feb-02 09:33N 46°05' W 122°56'391005.4
2016-Feb-02 09:31N 46°11' W 123°51'3320002.0
2016-Feb-02 09:31N 46°10' W 123°03'14797.5
2016-Feb-02 09:30N 46°12' W 123°23'0 0.0
2016-Feb-02 08:33N 46°12' W 123°23'20611.9
2016-Feb-02 08:31N 46°11' W 123°51'3330002.8
2016-Feb-02 08:31N 46°10' W 123°03'7121.2
2016-Feb-02 08:27N 46°05' W 122°56'2022.5
2016-Feb-02 07:33N 46°12' W 123°23'20586.4
2016-Feb-02 07:31N 46°11' W 123°51'39636.9
2016-Feb-02 07:27N 46°05' W 122°56'780.9
2016-Feb-02 07:22N 46°10' W 123°03'3339.3
2016-Feb-02 06:31N 46°11' W 123°51'3324002.2
2016-Feb-02 06:31N 46°10' W 123°03'7744.9
2016-Feb-02 06:30N 46°05' W 122°56'20187.9
2016-Feb-02 06:24N 46°12' W 123°23'2022.2
2016-Feb-02 05:31N 46°11' W 123°51'3317144.5
2016-Feb-02 05:31N 46°10' W 123°03'14797.5
2016-Feb-02 05:30N 46°12' W 123°23'20143.7
2016-Feb-02 05:21N 46°05' W 122°56'2024.8
2016-Feb-02 04:32N 46°12' W 123°23'201082.5
2016-Feb-02 04:31N 46°11' W 123°51'393351.2
2016-Feb-02 04:30N 46°05' W 122°56'718.5
2016-Feb-02 04:07N 46°10' W 123°03'3355.7
2016-Feb-02 03:31N 46°11' W 123°51'3324002.3
2016-Feb-02 03:31N 46°10' W 123°03'14106.7
2016-Feb-02 03:23N 46°12' W 123°23'20157.3
2016-Feb-02 03:15N 46°05' W 122°56'3953.1
2016-Feb-02 02:31N 46°11' W 123°51'39617.3
2016-Feb-02 02:27N 46°05' W 122°56'20287.4
2016-Feb-02 02:23N 46°12' W 123°23'0 0.0
2016-Feb-02 01:33N 46°12' W 123°23'20581.5
2016-Feb-02 01:31N 46°11' W 123°51'3324002.3
2016-Feb-02 01:31N 46°10' W 123°03'7120.6
2016-Feb-02 01:27N 46°05' W 122°56'3941.7
2016-Feb-02 00:31N 46°11' W 123°51'393059.8
2016-Feb-02 00:30N 46°05' W 122°56'751.6
2016-Feb-02 00:22N 46°10' W 123°03'3339.3
2016-Feb-01 23:31N 46°11' W 123°51'3320001.9
2016-Feb-01 23:31N 46°10' W 123°03'766.1
2016-Feb-01 23:24N 46°05' W 122°56'3944.0
2016-Feb-01 22:31N 46°11' W 123°51'33641.8
2016-Feb-01 22:28N 46°10' W 123°03'14452.6
2016-Feb-01 22:26N 46°12' W 123°23'20684.9
2016-Feb-01 22:24N 46°05' W 122°56'3944.1
2016-Feb-01 21:31N 46°11' W 123°51'392994.7
2016-Feb-01 21:30N 46°05' W 122°56'201017.9
2016-Feb-01 21:29N 46°12' W 123°23'14797.5
2016-Feb-01 21:28N 46°10' W 123°03'1415.0
2016-Feb-01 20:32N 46°12' W 123°23'20294.4
2016-Feb-01 20:28N 46°11' W 123°51'33628.3
2016-Feb-01 20:25N 46°10' W 123°03'7685.7
2016-Feb-01 20:24N 46°05' W 122°56'3944.1
2016-Feb-01 19:31N 46°11' W 123°51'3317144.5
2016-Feb-01 19:31N 46°10' W 123°03'7119.0
2016-Feb-01 19:27N 46°05' W 122°56'3941.8
2016-Feb-01 18:31N 46°11' W 123°51'39342.5
2016-Feb-01 18:24N 46°05' W 122°56'725.1
2016-Feb-01 18:07N 46°10' W 123°03'3355.7
2016-Feb-01 17:31N 46°11' W 123°51'33165.3
2016-Feb-01 17:19N 46°10' W 123°03'744.8
2016-Feb-01 17:09N 46°05' W 122°56'3961.5
2016-Feb-01 16:31N 46°11' W 123°51'3310910.2
2016-Feb-01 16:31N 46°10' W 123°03'7635.5
2016-Feb-01 16:30N 46°05' W 122°56'0 0.0
2016-Feb-01 15:33N 46°05' W 122°56'391066.3
2016-Feb-01 15:31N 46°11' W 123°51'3315001.4
2016-Feb-01 15:31N 46°10' W 123°03'3333.4
2016-Feb-01 14:31N 46°11' W 123°51'33638.4
2016-Feb-01 14:28N 46°10' W 123°03'7117.4
2016-Feb-01 14:24N 46°05' W 122°56'3944.1
2016-Feb-01 13:31N 46°11' W 123°51'33327.9
2016-Feb-01 13:25N 46°10' W 123°03'7592.2
2016-Feb-01 13:24N 46°05' W 122°56'3944.2
2016-Feb-01 12:31N 46°11' W 123°51'33219.8
2016-Feb-01 12:22N 46°10' W 123°03'7115.8
2016-Feb-01 12:18N 46°05' W 122°56'3949.8
2016-Feb-01 11:31N 46°11' W 123°51'3317144.5
2016-Feb-01 11:31N 46°10' W 123°03'7635.5
2016-Feb-01 11:30N 46°05' W 122°56'0 0.0
2016-Feb-01 10:33N 46°05' W 122°56'39457.0
2016-Feb-01 10:28N 46°11' W 123°51'3315001.5
2016-Feb-01 10:28N 46°10' W 123°03'7 7.9
2016-Feb-01 09:33N 46°05' W 122°56'391074.4
2016-Feb-01 09:31N 46°11' W 123°51'33638.4
2016-Feb-01 09:28N 46°10' W 123°03'3335.2
2016-Feb-01 08:31N 46°11' W 123°51'0 0.0
2016-Feb-01 07:31N 46°11' W 123°51'392815.0
2016-Feb-01 07:30N 46°05' W 122°56'752.6
2016-Feb-01 07:22N 46°10' W 123°03'3339.3
2016-Feb-01 06:31N 46°11' W 123°51'3315001.5
2016-Feb-01 06:31N 46°10' W 123°03'7115.3
2016-Feb-01 06:27N 46°05' W 122°56'3941.8
2016-Feb-01 05:31N 46°11' W 123°51'39340.0
2016-Feb-01 05:24N 46°05' W 122°56'7197.4
2016-Feb-01 05:22N 46°10' W 123°03'3339.3
2016-Feb-01 04:31N 46°11' W 123°51'392606.5
2016-Feb-01 04:30N 46°05' W 122°56'7195.9
2016-Feb-01 04:28N 46°10' W 123°03'7 7.9
2016-Feb-01 03:33N 46°05' W 122°56'391117.1
2016-Feb-01 03:31N 46°11' W 123°51'3940.5
2016-Feb-01 02:33N 46°05' W 122°56'391192.8
2016-Feb-01 02:31N 46°11' W 123°51'3310001.0
2016-Feb-01 02:31N 46°10' W 123°03'7 7.5
2016-Feb-01 01:33N 46°05' W 122°56'391135.1
2016-Feb-01 01:31N 46°11' W 123°51'3324002.3
2016-Feb-01 01:31N 46°10' W 123°03'3333.4
2016-Feb-01 00:31N 46°11' W 123°51'33652.2
2016-Feb-01 00:28N 46°10' W 123°03'7491.6
2016-Feb-01 00:27N 46°05' W 122°56'3941.8
2016-Jan-31 23:31N 46°11' W 123°51'33221.8
2016-Jan-31 23:22N 46°10' W 123°03'7111.8
2016-Jan-31 23:18N 46°05' W 122°56'0 0.0
2016-Jan-31 22:33N 46°05' W 122°56'391144.3
2016-Jan-31 22:31N 46°11' W 123°51'33641.8
2016-Jan-31 22:28N 46°10' W 123°03'7 7.9
2016-Jan-31 21:33N 46°05' W 122°56'391163.2
2016-Jan-31 21:31N 46°11' W 123°51'3324002.3
2016-Jan-31 21:31N 46°10' W 123°03'3333.4
2016-Jan-31 20:31N 46°11' W 123°51'39335.1
2016-Jan-31 20:24N 46°05' W 122°56'7268.6
2016-Jan-31 20:22N 46°10' W 123°03'3339.0
2016-Jan-31 19:31N 46°11' W 123°51'392307.4
2016-Jan-31 19:30N 46°05' W 122°56'7260.6
2016-Jan-31 19:28N 46°10' W 123°03'7 7.8
2016-Jan-31 18:33N 46°05' W 122°56'391163.2
2016-Jan-31 18:31N 46°11' W 123°51'33232.1
2016-Jan-31 18:22N 46°10' W 123°03'7 8.8
2016-Jan-31 17:33N 46°05' W 122°56'7274.3
2016-Jan-31 17:31N 46°10' W 123°03'335000.5
2016-Jan-31 17:31N 46°11' W 123°51'3940.4
2016-Jan-31 16:33N 46°05' W 122°56'391182.8
2016-Jan-31 16:31N 46°11' W 123°51'33356.1
2016-Jan-31 16:25N 46°10' W 123°03'7 8.3
2016-Jan-31 15:33N 46°05' W 122°56'7274.3
2016-Jan-31 15:31N 46°10' W 123°03'335455.1
2016-Jan-31 15:31N 46°11' W 123°51'0 0.0
2016-Jan-31 14:31N 46°11' W 123°51'33231.2
2016-Jan-31 14:22N 46°10' W 123°03'741.8
2016-Jan-31 14:12N 46°05' W 122°56'0 0.0
2016-Jan-31 13:33N 46°05' W 122°56'391192.8
2016-Jan-31 13:31N 46°11' W 123°51'33774.3
2016-Jan-31 13:28N 46°10' W 123°03'3334.8
2016-Jan-31 12:31N 46°11' W 123°51'392307.4
2016-Jan-31 12:30N 46°05' W 122°56'795.8
2016-Jan-31 12:26N 46°10' W 123°03'0 0.0
2016-Jan-31 11:32N 46°10' W 123°03'335000.5
2016-Jan-31 11:31N 46°11' W 123°51'392199.2
2016-Jan-31 11:30N 46°05' W 122°56'7 7.4
2016-Jan-31 10:32N 46°10' W 123°03'335217.9
2016-Jan-31 10:31N 46°11' W 123°51'39333.5
2016-Jan-31 10:24N 46°05' W 122°56'3944.3
2016-Jan-31 09:31N 46°11' W 123°51'392234.2
2016-Jan-31 09:30N 46°05' W 122°56'796.5
2016-Jan-31 09:26N 46°10' W 123°03'3336.7
2016-Jan-31 08:31N 46°11' W 123°51'392165.4
2016-Jan-31 08:30N 46°05' W 122°56'7289.5
2016-Jan-31 08:29N 46°10' W 123°03'7 7.8
2016-Jan-31 07:33N 46°05' W 122°56'7286.3
2016-Jan-31 07:32N 46°10' W 123°03'335000.5
2016-Jan-31 07:31N 46°11' W 123°51'3940.4
2016-Jan-31 06:33N 46°05' W 122°56'7286.3
2016-Jan-31 06:32N 46°10' W 123°03'335217.9
2016-Jan-31 06:31N 46°11' W 123°51'0 0.0
2016-Jan-31 05:31N 46°11' W 123°51'3317144.5
2016-Jan-31 05:31N 46°10' W 123°03'762.2
2016-Jan-31 05:24N 46°05' W 122°56'3944.3
2016-Jan-31 04:31N 46°11' W 123°51'33764.4
2016-Jan-31 04:29N 46°10' W 123°03'7292.8
2016-Jan-31 04:27N 46°05' W 122°56'3942.0
2016-Jan-31 03:31N 46°11' W 123°51'39569.8
2016-Jan-31 03:27N 46°05' W 122°56'796.9
2016-Jan-31 03:23N 46°10' W 123°03'0 0.0
2016-Jan-31 02:31N 46°10' W 123°03'33689.7
2016-Jan-31 02:28N 46°11' W 123°51'39232.3
2016-Jan-31 02:18N 46°05' W 122°56'3950.0
2016-Jan-31 01:31N 46°11' W 123°51'333158.2
2016-Jan-31 01:31N 46°10' W 123°03'7124.1
2016-Jan-31 01:27N 46°05' W 122°56'3942.0
2016-Jan-31 00:31N 46°11' W 123°51'33553.0
2016-Jan-31 00:28N 46°10' W 123°03'7789.6
2016-Jan-31 00:27N 46°05' W 122°56'3942.0
2016-Jan-30 23:31N 46°11' W 123°51'39567.5
2016-Jan-30 23:27N 46°05' W 122°56'7172.6
2016-Jan-30 23:25N 46°10' W 123°03'0 0.0
2016-Jan-30 22:31N 46°10' W 123°03'33827.7
2016-Jan-30 22:28N 46°11' W 123°51'0 0.0
2016-Jan-30 21:31N 46°11' W 123°51'39565.3
2016-Jan-30 21:27N 46°05' W 122°56'751.2
2016-Jan-30 21:19N 46°10' W 123°03'3339.7
2016-Jan-30 20:28N 46°11' W 123°51'39563.0
2016-Jan-30 20:24N 46°05' W 122°56'779.4
2016-Jan-30 20:19N 46°10' W 123°03'3342.2
2016-Jan-30 19:31N 46°11' W 123°51'391954.9
2016-Jan-30 19:30N 46°05' W 122°56'751.8
2016-Jan-30 19:22N 46°10' W 123°03'7 8.9
2016-Jan-30 18:33N 46°05' W 122°56'391315.4
2016-Jan-30 18:31N 46°11' W 123°51'0 0.0
2016-Jan-30 17:31N 46°11' W 123°51'3320002.0
2016-Jan-30 17:31N 46°10' W 123°03'727.0
2016-Jan-30 17:15N 46°05' W 122°56'3953.6
2016-Jan-30 16:31N 46°11' W 123°51'39554.1
2016-Jan-30 16:27N 46°05' W 122°56'7230.6
2016-Jan-30 16:25N 46°10' W 123°03'3337.1
2016-Jan-30 15:31N 46°11' W 123°51'333243.6
2016-Jan-30 15:31N 46°10' W 123°03'765.6
2016-Jan-30 15:24N 46°05' W 122°56'7 8.3
2016-Jan-30 14:32N 46°10' W 123°03'334800.5
2016-Jan-30 14:31N 46°11' W 123°51'391902.1
2016-Jan-30 14:30N 46°05' W 122°56'3939.9
2016-Jan-30 13:31N 46°11' W 123°51'3320002.0
2016-Jan-30 13:31N 46°10' W 123°03'742.9
2016-Jan-30 13:21N 46°05' W 122°56'0 0.0
2016-Jan-30 12:33N 46°05' W 122°56'391366.5
2016-Jan-30 12:31N 46°11' W 123°51'33655.8
2016-Jan-30 12:28N 46°10' W 123°03'3335.1
2016-Jan-30 11:31N 46°11' W 123°51'33302.3
2016-Jan-30 11:25N 46°10' W 123°03'784.3
2016-Jan-30 11:20N 46°05' W 122°56'3948.6
2016-Jan-30 10:31N 46°11' W 123°51'333243.6
2016-Jan-30 10:31N 46°10' W 123°03'7202.0
2016-Jan-30 10:29N 46°05' W 122°56'3941.0
2016-Jan-30 09:31N 46°11' W 123°51'39837.8
2016-Jan-30 09:29N 46°05' W 122°56'7114.8
2016-Jan-30 09:25N 46°10' W 123°03'7 8.2
2016-Jan-30 08:32N 46°05' W 122°56'3912795.6
2016-Jan-30 08:31N 46°11' W 123°51'33302.3
2016-Jan-30 08:25N 46°10' W 123°03'7 8.2
2016-Jan-30 07:32N 46°05' W 122°56'3914075.2
2016-Jan-30 07:31N 46°11' W 123°51'333333.7
2016-Jan-30 07:31N 46°10' W 123°03'3333.7
2016-Jan-30 06:31N 46°11' W 123°51'33566.1
2016-Jan-30 06:28N 46°10' W 123°03'725.1
2016-Jan-30 06:11N 46°05' W 122°56'0 0.0
2016-Jan-30 05:32N 46°05' W 122°56'3920107.4
2016-Jan-30 05:31N 46°11' W 123°51'33300.8
2016-Jan-30 05:25N 46°10' W 123°03'3337.4
2016-Jan-30 04:31N 46°11' W 123°51'39837.8
2016-Jan-30 04:29N 46°05' W 122°56'7116.3
2016-Jan-30 04:25N 46°10' W 123°03'3337.4
2016-Jan-30 03:31N 46°11' W 123°51'39402.1
2016-Jan-30 03:26N 46°05' W 122°56'7635.5
2016-Jan-30 03:25N 46°10' W 123°03'3337.4
2016-Jan-30 02:31N 46°11' W 123°51'334138.3
2016-Jan-30 02:31N 46°10' W 123°03'7183.5
2016-Jan-30 02:29N 46°05' W 122°56'3941.1
2016-Jan-30 01:31N 46°11' W 123°51'33553.0
2016-Jan-30 01:28N 46°10' W 123°03'738.4
2016-Jan-30 01:17N 46°05' W 122°56'3952.1
2016-Jan-30 00:31N 46°11' W 123°51'333158.2
2016-Jan-30 00:31N 46°10' W 123°03'7194.5
2016-Jan-30 00:29N 46°05' W 122°56'3941.0
2016-Jan-29 23:31N 46°11' W 123°51'3330002.9
2016-Jan-29 23:31N 46°10' W 123°03'749.2
2016-Jan-29 23:23N 46°05' W 122°56'0 0.0
2016-Jan-29 22:32N 46°05' W 122°56'3917594.0
2016-Jan-29 22:31N 46°11' W 123°51'33221.4
2016-Jan-29 22:22N 46°10' W 123°03'7 8.5
2016-Jan-29 21:32N 46°05' W 122°56'3928150.4
2016-Jan-29 21:31N 46°11' W 123°51'33645.2
2016-Jan-29 21:28N 46°10' W 123°03'3335.2
2016-Jan-29 20:31N 46°11' W 123°51'3317144.5
2016-Jan-29 20:31N 46°10' W 123°03'7154.2
2016-Jan-29 20:29N 46°05' W 122°56'3941.1
2016-Jan-29 19:31N 46°11' W 123°51'33302.3
2016-Jan-29 19:25N 46°10' W 123°03'738.6
2016-Jan-29 19:14N 46°05' W 122°56'3955.7
2016-Jan-29 18:31N 46°11' W 123°51'333529.7
2016-Jan-29 18:31N 46°10' W 123°03'738.3
2016-Jan-29 18:20N 46°05' W 122°56'3948.8
2016-Jan-29 17:31N 46°11' W 123°51'33553.0
2016-Jan-29 17:28N 46°10' W 123°03'730.3
2016-Jan-29 17:14N 46°05' W 122°56'0 0.0
2016-Jan-29 16:32N 46°05' W 122°56'3914075.2
2016-Jan-29 16:31N 46°11' W 123°51'33159.0
2016-Jan-29 16:19N 46°10' W 123°03'7 9.2
2016-Jan-29 15:32N 46°05' W 122°56'39140751.9
2016-Jan-29 15:32N 46°11' W 123°51'33550.5
2016-Jan-29 15:28N 46°10' W 123°03'3335.5
2016-Jan-29 14:31N 46°11' W 123°51'333333.7
2016-Jan-29 14:31N 46°10' W 123°03'738.3
2016-Jan-29 14:20N 46°05' W 122°56'  

Dump ship's entire track history